<?xml version="1.0" encoding="UTF-8"?>
<gpx version="1.1" creator="Garmin Connect"
  xsi:schemaLocation="http://www.topografix.com/GPX/1/1 http://www.topografix.com/GPX/1/1/gpx.xsd http://www.garmin.com/xmlschemas/GpxExtensions/v3 http://www.garmin.com/xmlschemas/GpxExtensionsv3.xsd http://www.garmin.com/xmlschemas/TrackPointExtension/v1 http://www.garmin.com/xmlschemas/TrackPointExtensionv1.xsd"
  xmlns="http://www.topografix.com/GPX/1/1"
  xmlns:gpxtpx="http://www.garmin.com/xmlschemas/TrackPointExtension/v1"
  xmlns:gpxx="http://www.garmin.com/xmlschemas/GpxExtensions/v3" xmlns:xsi="http://www.w3.org/2001/XMLSchema-instance">
  <metadata>
    <link href="connect.garmin.com">
      <text>Garmin Connect</text>
    </link>
    <time>2013-04-13T15:05:59.000Z</time>
  </metadata>
  <trk>
    <name>Untitled</name>
    <trkseg>
      <trkpt lon="11.95807727985084" lat="57.65660136938095">
        <ele>44.20000076293945</ele>
        <time>2013-04-13T15:06:01.000Z</time>
      </trkpt>
      <trkpt lon="11.958061270415783" lat="57.65660195611417">
        <ele>39.400001525878906</ele>
        <time>2013-04-13T15:06:05.000Z</time>
      </trkpt>
      <trkpt lon="11.958062360063195" lat="57.656630454584956">
        <ele>37.400001525878906</ele>
        <time>2013-04-13T15:06:07.000Z</time>
      </trkpt>
      <trkpt lon="11.958018438890576" lat="57.65675459057093">
        <ele>40.0</ele>
        <time>2013-04-13T15:06:12.000Z</time>
      </trkpt>
      <trkpt lon="11.957973260432482" lat="57.65682365745306">
        <ele>40.400001525878906</ele>
        <time>2013-04-13T15:06:14.000Z</time>
      </trkpt>
      <trkpt lon="11.957748457789421" lat="57.6570597756654">
        <ele>40.400001525878906</ele>
        <time>2013-04-13T15:06:21.000Z</time>
      </trkpt>
      <trkpt lon="11.957571180537343" lat="57.65716748312116">
        <ele>32.20000076293945</ele>
        <time>2013-04-13T15:06:26.000Z</time>
      </trkpt>
      <trkpt lon="11.957423742860556" lat="57.65728206373751">
        <ele>28.200000762939453</ele>
        <time>2013-04-13T15:06:30.000Z</time>
      </trkpt>
      <trkpt lon="11.957230875268579" lat="57.65742665156722">
        <ele>25.600000381469727</ele>
        <time>2013-04-13T15:06:36.000Z</time>
      </trkpt>
      <trkpt lon="11.957104476168752" lat="57.65750334598124">
        <ele>28.200000762939453</ele>
        <time>2013-04-13T15:06:40.000Z</time>
      </trkpt>
      <trkpt lon="11.957047646865249" lat="57.657525055110455">
        <ele>25.600000381469727</ele>
        <time>2013-04-13T15:06:53.000Z</time>
      </trkpt>
      <trkpt lon="11.957068853080273" lat="57.65752396546304">
        <ele>30.600000381469727</ele>
        <time>2013-04-13T15:07:03.000Z</time>
      </trkpt>
      <trkpt lon="11.957093244418502" lat="57.657550955191255">
        <ele>40.0</ele>
        <time>2013-04-13T15:07:08.000Z</time>
      </trkpt>
      <trkpt lon="11.957046054303646" lat="57.657562270760536">
        <ele>42.400001525878906</ele>
        <time>2013-04-13T15:07:35.000Z</time>
      </trkpt>
      <trkpt lon="11.956985034048557" lat="57.65753553248942">
        <ele>39.400001525878906</ele>
        <time>2013-04-13T15:07:42.000Z</time>
      </trkpt>
      <trkpt lon="11.956910267472267" lat="57.65751424245536">
        <ele>33.400001525878906</ele>
        <time>2013-04-13T15:07:47.000Z</time>
      </trkpt>
      <trkpt lon="11.956894341856241" lat="57.65751105733216">
        <ele>32.599998474121094</ele>
        <time>2013-04-13T15:07:48.000Z</time>
      </trkpt>
      <trkpt lon="11.956831142306328" lat="57.657507956027985">
        <ele>28.600000381469727</ele>
        <time>2013-04-13T15:07:54.000Z</time>
      </trkpt>
      <trkpt lon="11.956815971061587" lat="57.65751516446471">
        <ele>33.400001525878906</ele>
        <time>2013-04-13T15:08:01.000Z</time>
      </trkpt>
      <trkpt lon="11.956854779273272" lat="57.65744308009744">
        <ele>33.400001525878906</ele>
        <time>2013-04-13T15:08:09.000Z</time>
      </trkpt>
      <trkpt lon="11.95689425803721" lat="57.657372169196606">
        <ele>35.400001525878906</ele>
        <time>2013-04-13T15:08:17.000Z</time>
      </trkpt>
      <trkpt lon="11.956886881962419" lat="57.65730653889477">
        <ele>35.400001525878906</ele>
        <time>2013-04-13T15:08:26.000Z</time>
      </trkpt>
      <trkpt lon="11.956821586936712" lat="57.65728449448943">
        <ele>37.0</ele>
        <time>2013-04-13T15:08:33.000Z</time>
      </trkpt>
      <trkpt lon="11.95674866437912" lat="57.657274855300784">
        <ele>38.0</ele>
        <time>2013-04-13T15:08:39.000Z</time>
      </trkpt>
      <trkpt lon="11.95666995830834" lat="57.65726345591247">
        <ele>37.400001525878906</ele>
        <time>2013-04-13T15:08:45.000Z</time>
      </trkpt>
      <trkpt lon="11.95661136880517" lat="57.65725155360997">
        <ele>39.400001525878906</ele>
        <time>2013-04-13T15:08:51.000Z</time>
      </trkpt>
      <trkpt lon="11.956529561430216" lat="57.65721215866506">
        <ele>40.0</ele>
        <time>2013-04-13T15:08:58.000Z</time>
      </trkpt>
      <trkpt lon="11.956467367708683" lat="57.65719246119261">
        <ele>41.400001525878906</ele>
        <time>2013-04-13T15:09:01.000Z</time>
      </trkpt>
      <trkpt lon="11.956314481794834" lat="57.6571340393275">
        <ele>46.20000076293945</ele>
        <time>2013-04-13T15:09:07.000Z</time>
      </trkpt>
      <trkpt lon="11.956293694674969" lat="57.65713973902166">
        <ele>46.400001525878906</ele>
        <time>2013-04-13T15:09:08.000Z</time>
      </trkpt>
      <trkpt lon="11.956155896186829" lat="57.65713898465037">
        <ele>50.400001525878906</ele>
        <time>2013-04-13T15:09:15.000Z</time>
      </trkpt>
      <trkpt lon="11.956108286976814" lat="57.65715055167675">
        <ele>49.400001525878906</ele>
        <time>2013-04-13T15:09:17.000Z</time>
      </trkpt>
      <trkpt lon="11.956007536500692" lat="57.65722766518593">
        <ele>48.20000076293945</ele>
        <time>2013-04-13T15:09:23.000Z</time>
      </trkpt>
      <trkpt lon="11.955862948670983" lat="57.65728399157524">
        <ele>48.20000076293945</ele>
        <time>2013-04-13T15:09:29.000Z</time>
      </trkpt>
      <trkpt lon="11.95572984404862" lat="57.657344257459044">
        <ele>47.20000076293945</ele>
        <time>2013-04-13T15:09:34.000Z</time>
      </trkpt>
      <trkpt lon="11.955604450777173" lat="57.65741198323667">
        <ele>47.400001525878906</ele>
        <time>2013-04-13T15:09:39.000Z</time>
      </trkpt>
      <trkpt lon="11.955510741099715" lat="57.65744995325804">
        <ele>42.599998474121094</ele>
        <time>2013-04-13T15:09:43.000Z</time>
      </trkpt>
      <trkpt lon="11.95541275665164" lat="57.65751315280795">
        <ele>38.400001525878906</ele>
        <time>2013-04-13T15:09:47.000Z</time>
      </trkpt>
      <trkpt lon="11.955298678949475" lat="57.65760057605803">
        <ele>32.599998474121094</ele>
        <time>2013-04-13T15:09:53.000Z</time>
      </trkpt>
      <trkpt lon="11.955269342288375" lat="57.65763225965202">
        <ele>31.600000381469727</ele>
        <time>2013-04-13T15:09:55.000Z</time>
      </trkpt>
      <trkpt lon="11.95525056682527" lat="57.65765665099025">
        <ele>32.20000076293945</ele>
        <time>2013-04-13T15:09:57.000Z</time>
      </trkpt>
      <trkpt lon="11.955233132466674" lat="57.65768565237522">
        <ele>33.400001525878906</ele>
        <time>2013-04-13T15:09:59.000Z</time>
      </trkpt>
      <trkpt lon="11.955146882683039" lat="57.65777785331011">
        <ele>36.400001525878906</ele>
        <time>2013-04-13T15:10:05.000Z</time>
      </trkpt>
      <trkpt lon="11.955037247389555" lat="57.657859241589904">
        <ele>37.0</ele>
        <time>2013-04-13T15:10:11.000Z</time>
      </trkpt>
      <trkpt lon="11.954908836632967" lat="57.6579974591732">
        <ele>40.400001525878906</ele>
        <time>2013-04-13T15:10:17.000Z</time>
      </trkpt>
      <trkpt lon="11.954804565757513" lat="57.65809108503163">
        <ele>41.599998474121094</ele>
        <time>2013-04-13T15:10:20.000Z</time>
      </trkpt>
      <trkpt lon="11.954554365947843" lat="57.65818295069039">
        <ele>44.599998474121094</ele>
        <time>2013-04-13T15:10:26.000Z</time>
      </trkpt>
      <trkpt lon="11.954505499452353" lat="57.65822787769139">
        <ele>44.599998474121094</ele>
        <time>2013-04-13T15:10:30.000Z</time>
      </trkpt>
      <trkpt lon="11.954391337931156" lat="57.65829526819289">
        <ele>44.20000076293945</ele>
        <time>2013-04-13T15:10:34.000Z</time>
      </trkpt>
      <trkpt lon="11.9542854744941" lat="57.65838679857552">
        <ele>48.20000076293945</ele>
        <time>2013-04-13T15:10:38.000Z</time>
      </trkpt>
      <trkpt lon="11.954269465059042" lat="57.658464247360826">
        <ele>48.400001525878906</ele>
        <time>2013-04-13T15:10:42.000Z</time>
      </trkpt>
      <trkpt lon="11.954281786456704" lat="57.658558962866664">
        <ele>53.0</ele>
        <time>2013-04-13T15:11:13.000Z</time>
      </trkpt>
      <trkpt lon="11.954296035692096" lat="57.65858897008002">
        <ele>53.400001525878906</ele>
        <time>2013-04-13T15:11:17.000Z</time>
      </trkpt>
      <trkpt lon="11.954322690144181" lat="57.65870933420956">
        <ele>59.400001525878906</ele>
        <time>2013-04-13T15:11:24.000Z</time>
      </trkpt>
      <trkpt lon="11.954337945207953" lat="57.658723164349794">
        <ele>60.400001525878906</ele>
        <time>2013-04-13T15:11:25.000Z</time>
      </trkpt>
      <trkpt lon="11.954434253275394" lat="57.65874546021223">
        <ele>61.0</ele>
        <time>2013-04-13T15:11:31.000Z</time>
      </trkpt>
      <trkpt lon="11.954383878037333" lat="57.658783765509725">
        <ele>59.20000076293945</ele>
        <time>2013-04-13T15:11:36.000Z</time>
      </trkpt>
      <trkpt lon="11.954238452017307" lat="57.65885325148702">
        <ele>53.400001525878906</ele>
        <time>2013-04-13T15:11:43.000Z</time>
      </trkpt>
      <trkpt lon="11.954249935224652" lat="57.658924078568816">
        <ele>51.0</ele>
        <time>2013-04-13T15:11:48.000Z</time>
      </trkpt>
      <trkpt lon="11.954327467828989" lat="57.65903664752841">
        <ele>55.400001525878906</ele>
        <time>2013-04-13T15:11:54.000Z</time>
      </trkpt>
      <trkpt lon="11.954343561083078" lat="57.65906455926597">
        <ele>54.599998474121094</ele>
        <time>2013-04-13T15:11:56.000Z</time>
      </trkpt>
      <trkpt lon="11.954262843355536" lat="57.65912985429168">
        <ele>51.0</ele>
        <time>2013-04-13T15:12:02.000Z</time>
      </trkpt>
      <trkpt lon="11.954230656847358" lat="57.65915969386697">
        <ele>51.0</ele>
        <time>2013-04-13T15:12:04.000Z</time>
      </trkpt>
      <trkpt lon="11.954217664897442" lat="57.65925264917314">
        <ele>51.400001525878906</ele>
        <time>2013-04-13T15:12:10.000Z</time>
      </trkpt>
      <trkpt lon="11.954224035143852" lat="57.659272849559784">
        <ele>50.0</ele>
        <time>2013-04-13T15:12:12.000Z</time>
      </trkpt>
      <trkpt lon="11.954208360984921" lat="57.65929497778416">
        <ele>52.0</ele>
        <time>2013-04-13T15:12:14.000Z</time>
      </trkpt>
      <trkpt lon="11.954196374863386" lat="57.659359937533736">
        <ele>52.400001525878906</ele>
        <time>2013-04-13T15:12:19.000Z</time>
      </trkpt>
      <trkpt lon="11.95418287999928" lat="57.65941835939884">
        <ele>49.400001525878906</ele>
        <time>2013-04-13T15:12:23.000Z</time>
      </trkpt>
      <trkpt lon="11.95415505208075" lat="57.65953025780618">
        <ele>49.400001525878906</ele>
        <time>2013-04-13T15:12:30.000Z</time>
      </trkpt>
      <trkpt lon="11.954155387356877" lat="57.659590439870954">
        <ele>49.400001525878906</ele>
        <time>2013-04-13T15:12:34.000Z</time>
      </trkpt>
      <trkpt lon="11.954079363495111" lat="57.659666296094656">
        <ele>51.400001525878906</ele>
        <time>2013-04-13T15:12:39.000Z</time>
      </trkpt>
      <trkpt lon="11.953998059034348" lat="57.6597536355257">
        <ele>53.400001525878906</ele>
        <time>2013-04-13T15:12:45.000Z</time>
      </trkpt>
      <trkpt lon="11.953922789543867" lat="57.65979688614607">
        <ele>53.0</ele>
        <time>2013-04-13T15:12:49.000Z</time>
      </trkpt>
      <trkpt lon="11.95385254919529" lat="57.65982513315976">
        <ele>54.599998474121094</ele>
        <time>2013-04-13T15:12:53.000Z</time>
      </trkpt>
      <trkpt lon="11.953823463991284" lat="57.65984105877578">
        <ele>57.599998474121094</ele>
        <time>2013-04-13T15:12:55.000Z</time>
      </trkpt>
      <trkpt lon="11.95374995470047" lat="57.659804597496986">
        <ele>60.400001525878906</ele>
        <time>2013-04-13T15:13:00.000Z</time>
      </trkpt>
      <trkpt lon="11.953651467338204" lat="57.65973494388163">
        <ele>64.0</ele>
        <time>2013-04-13T15:13:06.000Z</time>
      </trkpt>
      <trkpt lon="11.953571252524853" lat="57.65966948121786">
        <ele>64.0</ele>
        <time>2013-04-13T15:13:11.000Z</time>
      </trkpt>
      <trkpt lon="11.953516267240047" lat="57.65965665690601">
        <ele>64.4000015258789</ele>
        <time>2013-04-13T15:13:13.000Z</time>
      </trkpt>
      <trkpt lon="11.953310240060091" lat="57.659587087109685">
        <ele>67.4000015258789</ele>
        <time>2013-04-13T15:13:20.000Z</time>
      </trkpt>
      <trkpt lon="11.953285345807672" lat="57.659583734348416">
        <ele>67.4000015258789</ele>
        <time>2013-04-13T15:13:21.000Z</time>
      </trkpt>
      <trkpt lon="11.953154252842069" lat="57.6596259791404">
        <ele>67.80000305175781</ele>
        <time>2013-04-13T15:13:27.000Z</time>
      </trkpt>
      <trkpt lon="11.953133968636394" lat="57.6596949622035">
        <ele>67.4000015258789</ele>
        <time>2013-04-13T15:13:32.000Z</time>
      </trkpt>
      <trkpt lon="11.95305216126144" lat="57.659747852012515">
        <ele>68.0</ele>
        <time>2013-04-13T15:13:38.000Z</time>
      </trkpt>
      <trkpt lon="11.953016957268119" lat="57.6597417332232">
        <ele>68.80000305175781</ele>
        <time>2013-04-13T15:13:40.000Z</time>
      </trkpt>
      <trkpt lon="11.952942693606019" lat="57.65972136519849">
        <ele>69.0</ele>
        <time>2013-04-13T15:13:45.000Z</time>
      </trkpt>
      <trkpt lon="11.952886786311865" lat="57.659782050177455">
        <ele>69.80000305175781</ele>
        <time>2013-04-13T15:13:51.000Z</time>
      </trkpt>
      <trkpt lon="11.952890641987324" lat="57.65982957556844">
        <ele>70.0</ele>
        <time>2013-04-13T15:13:55.000Z</time>
      </trkpt>
      <trkpt lon="11.952901538461447" lat="57.65991716645658">
        <ele>70.4000015258789</ele>
        <time>2013-04-13T15:14:02.000Z</time>
      </trkpt>
      <trkpt lon="11.952897096052766" lat="57.660009786486626">
        <ele>71.4000015258789</ele>
        <time>2013-04-13T15:14:08.000Z</time>
      </trkpt>
      <trkpt lon="11.952889552339911" lat="57.66002277843654">
        <ele>72.0</ele>
        <time>2013-04-13T15:14:09.000Z</time>
      </trkpt>
      <trkpt lon="11.952824173495173" lat="57.66006418503821">
        <ele>73.0</ele>
        <time>2013-04-13T15:14:12.000Z</time>
      </trkpt>
      <trkpt lon="11.952782850712538" lat="57.660112297162414">
        <ele>73.4000015258789</ele>
        <time>2013-04-13T15:14:15.000Z</time>
      </trkpt>
      <trkpt lon="11.952716885134578" lat="57.66022595576942">
        <ele>74.4000015258789</ele>
        <time>2013-04-13T15:14:22.000Z</time>
      </trkpt>
      <trkpt lon="11.952668186277151" lat="57.660273145884275">
        <ele>74.0</ele>
        <time>2013-04-13T15:14:26.000Z</time>
      </trkpt>
      <trkpt lon="11.952667767181993" lat="57.660315642133355">
        <ele>75.4000015258789</ele>
        <time>2013-04-13T15:14:29.000Z</time>
      </trkpt>
      <trkpt lon="11.95263784378767" lat="57.66037699766457">
        <ele>76.4000015258789</ele>
        <time>2013-04-13T15:14:34.000Z</time>
      </trkpt>
      <trkpt lon="11.952515551820397" lat="57.66044715419412">
        <ele>76.4000015258789</ele>
        <time>2013-04-13T15:14:41.000Z</time>
      </trkpt>
      <trkpt lon="11.952478839084506" lat="57.66048495657742">
        <ele>76.4000015258789</ele>
        <time>2013-04-13T15:14:47.000Z</time>
      </trkpt>
      <trkpt lon="11.952510355040431" lat="57.660499373450875">
        <ele>77.4000015258789</ele>
        <time>2013-04-13T15:14:52.000Z</time>
      </trkpt>
      <trkpt lon="11.952523766085505" lat="57.66051563434303">
        <ele>78.0</ele>
        <time>2013-04-13T15:14:58.000Z</time>
      </trkpt>
      <trkpt lon="11.952592246234417" lat="57.66055955551565">
        <ele>78.80000305175781</ele>
        <time>2013-04-13T15:15:02.000Z</time>
      </trkpt>
      <trkpt lon="11.952621079981327" lat="57.66062895767391">
        <ele>79.80000305175781</ele>
        <time>2013-04-13T15:15:07.000Z</time>
      </trkpt>
      <trkpt lon="11.95250834338367" lat="57.660694839432836">
        <ele>81.80000305175781</ele>
        <time>2013-04-13T15:15:14.000Z</time>
      </trkpt>
      <trkpt lon="11.952449334785342" lat="57.66070967540145">
        <ele>82.0</ele>
        <time>2013-04-13T15:15:16.000Z</time>
      </trkpt>
      <trkpt lon="11.9524584710598" lat="57.66076206229627">
        <ele>83.0</ele>
        <time>2013-04-13T15:15:21.000Z</time>
      </trkpt>
      <trkpt lon="11.952495099976659" lat="57.66080405563116">
        <ele>83.4000015258789</ele>
        <time>2013-04-13T15:15:24.000Z</time>
      </trkpt>
      <trkpt lon="11.952526280656457" lat="57.66083045862615">
        <ele>83.4000015258789</ele>
        <time>2013-04-13T15:15:26.000Z</time>
      </trkpt>
      <trkpt lon="11.952478252351284" lat="57.66091234982014">
        <ele>85.0</ele>
        <time>2013-04-13T15:15:32.000Z</time>
      </trkpt>
      <trkpt lon="11.952468194067478" lat="57.66092509031296">
        <ele>85.0</ele>
        <time>2013-04-13T15:15:33.000Z</time>
      </trkpt>
      <trkpt lon="11.952460063621402" lat="57.66100094653666">
        <ele>87.0</ele>
        <time>2013-04-13T15:15:38.000Z</time>
      </trkpt>
      <trkpt lon="11.952424859628081" lat="57.66109373420477">
        <ele>88.4000015258789</ele>
        <time>2013-04-13T15:15:44.000Z</time>
      </trkpt>
      <trkpt lon="11.952423937618732" lat="57.66115726903081">
        <ele>89.4000015258789</ele>
        <time>2013-04-13T15:15:48.000Z</time>
      </trkpt>
      <trkpt lon="11.952355289831758" lat="57.661233795806766">
        <ele>91.4000015258789</ele>
        <time>2013-04-13T15:15:54.000Z</time>
      </trkpt>
      <trkpt lon="11.952290665358305" lat="57.66125215217471">
        <ele>91.80000305175781</ele>
        <time>2013-04-13T15:15:59.000Z</time>
      </trkpt>
      <trkpt lon="11.952286390587687" lat="57.66125257126987">
        <ele>91.4000015258789</ele>
        <time>2013-04-13T15:16:03.000Z</time>
      </trkpt>
      <trkpt lon="11.952185556292534" lat="57.66127754934132">
        <ele>90.4000015258789</ele>
        <time>2013-04-13T15:17:08.000Z</time>
      </trkpt>
      <trkpt lon="11.952163260430098" lat="57.661303197965026">
        <ele>90.4000015258789</ele>
        <time>2013-04-13T15:17:09.000Z</time>
      </trkpt>
      <trkpt lon="11.95204608142376" lat="57.66138223931193">
        <ele>89.0</ele>
        <time>2013-04-13T15:17:14.000Z</time>
      </trkpt>
      <trkpt lon="11.952007859945297" lat="57.66149405390024">
        <ele>88.0</ele>
        <time>2013-04-13T15:17:19.000Z</time>
      </trkpt>
      <trkpt lon="11.952002746984363" lat="57.661635959520936">
        <ele>87.0</ele>
        <time>2013-04-13T15:17:24.000Z</time>
      </trkpt>
      <trkpt lon="11.951953377574682" lat="57.66176185570657">
        <ele>88.0</ele>
        <time>2013-04-13T15:17:29.000Z</time>
      </trkpt>
      <trkpt lon="11.951940972357988" lat="57.66178037971258">
        <ele>88.4000015258789</ele>
        <time>2013-04-13T15:17:30.000Z</time>
      </trkpt>
      <trkpt lon="11.951797557994723" lat="57.66181306913495">
        <ele>89.0</ele>
        <time>2013-04-13T15:17:35.000Z</time>
      </trkpt>
      <trkpt lon="11.951687252148986" lat="57.66188917681575">
        <ele>88.4000015258789</ele>
        <time>2013-04-13T15:17:38.000Z</time>
      </trkpt>
      <trkpt lon="11.951564457267523" lat="57.66194265335798">
        <ele>87.0</ele>
        <time>2013-04-13T15:17:42.000Z</time>
      </trkpt>
      <trkpt lon="11.951474184170365" lat="57.661961764097214">
        <ele>86.0</ele>
        <time>2013-04-13T15:17:44.000Z</time>
      </trkpt>
      <trkpt lon="11.95131953805685" lat="57.662025382742286">
        <ele>85.0</ele>
        <time>2013-04-13T15:17:48.000Z</time>
      </trkpt>
      <trkpt lon="11.951296990737319" lat="57.662117751315236">
        <ele>82.80000305175781</ele>
        <time>2013-04-13T15:17:52.000Z</time>
      </trkpt>
      <trkpt lon="11.951185679063201" lat="57.6622265484184">
        <ele>79.4000015258789</ele>
        <time>2013-04-13T15:17:58.000Z</time>
      </trkpt>
      <trkpt lon="11.951166149228811" lat="57.66224188730121">
        <ele>78.4000015258789</ele>
        <time>2013-04-13T15:17:59.000Z</time>
      </trkpt>
      <trkpt lon="11.951020052656531" lat="57.66233836300671">
        <ele>76.0</ele>
        <time>2013-04-13T15:18:05.000Z</time>
      </trkpt>
      <trkpt lon="11.950965570285916" lat="57.662445567548275">
        <ele>75.4000015258789</ele>
        <time>2013-04-13T15:18:09.000Z</time>
      </trkpt>
      <trkpt lon="11.950911758467555" lat="57.66252159141004">
        <ele>74.4000015258789</ele>
        <time>2013-04-13T15:18:13.000Z</time>
      </trkpt>
      <trkpt lon="11.950787957757711" lat="57.66257716342807">
        <ele>72.4000015258789</ele>
        <time>2013-04-13T15:18:17.000Z</time>
      </trkpt>
      <trkpt lon="11.950633563101292" lat="57.662686882540584">
        <ele>71.4000015258789</ele>
        <time>2013-04-13T15:18:23.000Z</time>
      </trkpt>
      <trkpt lon="11.95061445236206" lat="57.6627429574728">
        <ele>71.4000015258789</ele>
        <time>2013-04-13T15:18:26.000Z</time>
      </trkpt>
      <trkpt lon="11.950432565063238" lat="57.66285225749016">
        <ele>72.4000015258789</ele>
        <time>2013-04-13T15:18:33.000Z</time>
      </trkpt>
      <trkpt lon="11.950327875092626" lat="57.66290657222271">
        <ele>73.0</ele>
        <time>2013-04-13T15:18:37.000Z</time>
      </trkpt>
      <trkpt lon="11.950272051617503" lat="57.6629744656384">
        <ele>74.0</ele>
        <time>2013-04-13T15:18:41.000Z</time>
      </trkpt>
      <trkpt lon="11.95022595115006" lat="57.663086699321866">
        <ele>75.0</ele>
        <time>2013-04-13T15:18:47.000Z</time>
      </trkpt>
      <trkpt lon="11.95020449347794" lat="57.663221061229706">
        <ele>76.0</ele>
        <time>2013-04-13T15:18:54.000Z</time>
      </trkpt>
      <trkpt lon="11.950198290869594" lat="57.663238663226366">
        <ele>76.4000015258789</ele>
        <time>2013-04-13T15:18:55.000Z</time>
      </trkpt>
      <trkpt lon="11.950198961421847" lat="57.66338744200766">
        <ele>78.4000015258789</ele>
        <time>2013-04-13T15:19:03.000Z</time>
      </trkpt>
      <trkpt lon="11.950111454352736" lat="57.66348324716091">
        <ele>80.80000305175781</ele>
        <time>2013-04-13T15:19:08.000Z</time>
      </trkpt>
      <trkpt lon="11.950106676667929" lat="57.66352968290448">
        <ele>81.80000305175781</ele>
        <time>2013-04-13T15:19:10.000Z</time>
      </trkpt>
      <trkpt lon="11.950081447139382" lat="57.66358936205506">
        <ele>82.80000305175781</ele>
        <time>2013-04-13T15:19:16.000Z</time>
      </trkpt>
      <trkpt lon="11.949965776875615" lat="57.663665637373924">
        <ele>84.0</ele>
        <time>2013-04-13T15:19:21.000Z</time>
      </trkpt>
      <trkpt lon="11.94989905692637" lat="57.663731686770916">
        <ele>84.0</ele>
        <time>2013-04-13T15:19:24.000Z</time>
      </trkpt>
      <trkpt lon="11.94990836083889" lat="57.66376965679228">
        <ele>84.0</ele>
        <time>2013-04-13T15:19:26.000Z</time>
      </trkpt>
      <trkpt lon="11.949930572882295" lat="57.66382866539061">
        <ele>85.0</ele>
        <time>2013-04-13T15:19:31.000Z</time>
      </trkpt>
      <trkpt lon="11.949961250647902" lat="57.663877280429006">
        <ele>85.0</ele>
        <time>2013-04-13T15:19:34.000Z</time>
      </trkpt>
      <trkpt lon="11.949992934241891" lat="57.663990184664726">
        <ele>86.0</ele>
        <time>2013-04-13T15:19:39.000Z</time>
      </trkpt>
      <trkpt lon="11.949886567890644" lat="57.66411398537457">
        <ele>86.0</ele>
        <time>2013-04-13T15:19:43.000Z</time>
      </trkpt>
      <trkpt lon="11.94990249350667" lat="57.66423066146672">
        <ele>85.0</ele>
        <time>2013-04-13T15:19:47.000Z</time>
      </trkpt>
      <trkpt lon="11.949932165443897" lat="57.66436083242297">
        <ele>85.4000015258789</ele>
        <time>2013-04-13T15:19:53.000Z</time>
      </trkpt>
      <trkpt lon="11.949928561225533" lat="57.66441053710878">
        <ele>85.0</ele>
        <time>2013-04-13T15:19:57.000Z</time>
      </trkpt>
      <trkpt lon="11.94988438859582" lat="57.66442956402898">
        <ele>87.0</ele>
        <time>2013-04-13T15:20:00.000Z</time>
      </trkpt>
      <trkpt lon="11.949791349470615" lat="57.66441254876554">
        <ele>89.0</ele>
        <time>2013-04-13T15:20:04.000Z</time>
      </trkpt>
      <trkpt lon="11.949774250388145" lat="57.664425959810615">
        <ele>89.0</ele>
        <time>2013-04-13T15:20:05.000Z</time>
      </trkpt>
      <trkpt lon="11.949667045846581" lat="57.66449896618724">
        <ele>91.4000015258789</ele>
        <time>2013-04-13T15:20:10.000Z</time>
      </trkpt>
      <trkpt lon="11.949619688093662" lat="57.664510449394584">
        <ele>92.4000015258789</ele>
        <time>2013-04-13T15:20:12.000Z</time>
      </trkpt>
      <trkpt lon="11.949608875438571" lat="57.664580941200256">
        <ele>92.80000305175781</ele>
        <time>2013-04-13T15:20:17.000Z</time>
      </trkpt>
      <trkpt lon="11.949605271220207" lat="57.66464564949274">
        <ele>93.80000305175781</ele>
        <time>2013-04-13T15:20:22.000Z</time>
      </trkpt>
      <trkpt lon="11.94960585795343" lat="57.664650762453675">
        <ele>93.80000305175781</ele>
        <time>2013-04-13T15:20:23.000Z</time>
      </trkpt>
      <trkpt lon="11.949585489928722" lat="57.66474765725434">
        <ele>94.0</ele>
        <time>2013-04-13T15:20:29.000Z</time>
      </trkpt>
      <trkpt lon="11.94957023486495" lat="57.664851089939475">
        <ele>93.80000305175781</ele>
        <time>2013-04-13T15:20:34.000Z</time>
      </trkpt>
      <trkpt lon="11.949501167982817" lat="57.66497354954481">
        <ele>92.80000305175781</ele>
        <time>2013-04-13T15:20:38.000Z</time>
      </trkpt>
      <trkpt lon="11.949474178254604" lat="57.66502283513546">
        <ele>92.4000015258789</ele>
        <time>2013-04-13T15:20:40.000Z</time>
      </trkpt>
      <trkpt lon="11.949299750849605" lat="57.66516155563295">
        <ele>89.4000015258789</ele>
        <time>2013-04-13T15:20:46.000Z</time>
      </trkpt>
      <trkpt lon="11.94926479831338" lat="57.6652071531862">
        <ele>89.4000015258789</ele>
        <time>2013-04-13T15:20:49.000Z</time>
      </trkpt>
      <trkpt lon="11.94926186464727" lat="57.66524855978787">
        <ele>90.0</ele>
        <time>2013-04-13T15:20:52.000Z</time>
      </trkpt>
      <trkpt lon="11.949316849932075" lat="57.66536775045097">
        <ele>89.4000015258789</ele>
        <time>2013-04-13T15:20:59.000Z</time>
      </trkpt>
      <trkpt lon="11.949332859367132" lat="57.66544545069337">
        <ele>90.0</ele>
        <time>2013-04-13T15:21:02.000Z</time>
      </trkpt>
      <trkpt lon="11.949328752234578" lat="57.66545785591006">
        <ele>90.4000015258789</ele>
        <time>2013-04-13T15:21:04.000Z</time>
      </trkpt>
      <trkpt lon="11.949316263198853" lat="57.665501441806555">
        <ele>91.80000305175781</ele>
        <time>2013-04-13T15:21:10.000Z</time>
      </trkpt>
      <trkpt lon="11.949276197701693" lat="57.66557696275413">
        <ele>91.80000305175781</ele>
        <time>2013-04-13T15:21:15.000Z</time>
      </trkpt>
      <trkpt lon="11.949186762794852" lat="57.66565608792007">
        <ele>92.4000015258789</ele>
        <time>2013-04-13T15:21:19.000Z</time>
      </trkpt>
      <trkpt lon="11.949136639013886" lat="57.66569858416915">
        <ele>92.80000305175781</ele>
        <time>2013-04-13T15:21:21.000Z</time>
      </trkpt>
      <trkpt lon="11.949001858010888" lat="57.665795562788844">
        <ele>92.80000305175781</ele>
        <time>2013-04-13T15:21:26.000Z</time>
      </trkpt>
      <trkpt lon="11.948936562985182" lat="57.66588575206697">
        <ele>91.80000305175781</ele>
        <time>2013-04-13T15:21:30.000Z</time>
      </trkpt>
      <trkpt lon="11.948863556608558" lat="57.6660224609077">
        <ele>90.4000015258789</ele>
        <time>2013-04-13T15:21:35.000Z</time>
      </trkpt>
      <trkpt lon="11.948859365656972" lat="57.666099490597844">
        <ele>89.4000015258789</ele>
        <time>2013-04-13T15:21:37.000Z</time>
      </trkpt>
      <trkpt lon="11.948698684573174" lat="57.666259752586484">
        <ele>88.0</ele>
        <time>2013-04-13T15:21:43.000Z</time>
      </trkpt>
      <trkpt lon="11.948597263544798" lat="57.66639344394207">
        <ele>86.0</ele>
        <time>2013-04-13T15:21:47.000Z</time>
      </trkpt>
      <trkpt lon="11.948727266862988" lat="57.66656535677612">
        <ele>83.0</ele>
        <time>2013-04-13T15:21:53.000Z</time>
      </trkpt>
      <trkpt lon="11.948740258812904" lat="57.66666007228196">
        <ele>81.0</ele>
        <time>2013-04-13T15:21:57.000Z</time>
      </trkpt>
      <trkpt lon="11.948639759793878" lat="57.66678445972502">
        <ele>78.80000305175781</ele>
        <time>2013-04-13T15:22:02.000Z</time>
      </trkpt>
      <trkpt lon="11.948622157797217" lat="57.66692904755473">
        <ele>77.0</ele>
        <time>2013-04-13T15:22:08.000Z</time>
      </trkpt>
      <trkpt lon="11.948730032891035" lat="57.66708285547793">
        <ele>72.4000015258789</ele>
        <time>2013-04-13T15:22:14.000Z</time>
      </trkpt>
      <trkpt lon="11.948797758668661" lat="57.66713767312467">
        <ele>70.4000015258789</ele>
        <time>2013-04-13T15:22:17.000Z</time>
      </trkpt>
      <trkpt lon="11.948731457814574" lat="57.66721436753869">
        <ele>68.80000305175781</ele>
        <time>2013-04-13T15:22:22.000Z</time>
      </trkpt>
      <trkpt lon="11.94875224493444" lat="57.667294666171074">
        <ele>65.4000015258789</ele>
        <time>2013-04-13T15:22:26.000Z</time>
      </trkpt>
      <trkpt lon="11.948809577152133" lat="57.66733665950596">
        <ele>64.4000015258789</ele>
        <time>2013-04-13T15:22:30.000Z</time>
      </trkpt>
      <trkpt lon="11.948805889114738" lat="57.66734956763685">
        <ele>63.400001525878906</ele>
        <time>2013-04-13T15:22:31.000Z</time>
      </trkpt>
      <trkpt lon="11.948764733970165" lat="57.66741913743317">
        <ele>60.400001525878906</ele>
        <time>2013-04-13T15:22:35.000Z</time>
      </trkpt>
      <trkpt lon="11.94869608618319" lat="57.66750446520746">
        <ele>54.599998474121094</ele>
        <time>2013-04-13T15:22:41.000Z</time>
      </trkpt>
      <trkpt lon="11.948655182495713" lat="57.66756464727223">
        <ele>51.400001525878906</ele>
        <time>2013-04-13T15:22:44.000Z</time>
      </trkpt>
      <trkpt lon="11.948680663481355" lat="57.667692471295595">
        <ele>47.20000076293945</ele>
        <time>2013-04-13T15:22:49.000Z</time>
      </trkpt>
      <trkpt lon="11.94865987636149" lat="57.66780713573098">
        <ele>44.599998474121094</ele>
        <time>2013-04-13T15:22:54.000Z</time>
      </trkpt>
      <trkpt lon="11.94868284277618" lat="57.66796915791929">
        <ele>42.400001525878906</ele>
        <time>2013-04-13T15:22:59.000Z</time>
      </trkpt>
      <trkpt lon="11.94877085275948" lat="57.668150793761015">
        <ele>39.0</ele>
        <time>2013-04-13T15:23:04.000Z</time>
      </trkpt>
      <trkpt lon="11.948713771998882" lat="57.66828037798405">
        <ele>39.400001525878906</ele>
        <time>2013-04-13T15:23:07.000Z</time>
      </trkpt>
      <trkpt lon="11.948701534420252" lat="57.668432677164674">
        <ele>39.0</ele>
        <time>2013-04-13T15:23:11.000Z</time>
      </trkpt>
      <trkpt lon="11.948701534420252" lat="57.668432677164674">
        <ele>39.0</ele>
        <time>2013-04-13T15:23:11.000Z</time>
      </trkpt>
      <trkpt lon="11.948701785877347" lat="57.66846226528287">
        <ele>39.400001525878906</ele>
        <time>2013-04-13T15:23:12.000Z</time>
      </trkpt>
      <trkpt lon="11.948702959343791" lat="57.66854147426784">
        <ele>40.0</ele>
        <time>2013-04-13T15:23:17.000Z</time>
      </trkpt>
      <trkpt lon="11.948701869696379" lat="57.66865446232259">
        <ele>46.400001525878906</ele>
        <time>2013-04-13T15:23:46.000Z</time>
      </trkpt>
      <trkpt lon="11.948672365397215" lat="57.668690755963326">
        <ele>47.400001525878906</ele>
        <time>2013-04-13T15:23:55.000Z</time>
      </trkpt>
      <trkpt lon="11.948622576892376" lat="57.668693689629436">
        <ele>50.0</ele>
        <time>2013-04-13T15:23:59.000Z</time>
      </trkpt>
      <trkpt lon="11.948563568294048" lat="57.668691761791706">
        <ele>53.599998474121094</ele>
        <time>2013-04-13T15:24:05.000Z</time>
      </trkpt>
      <trkpt lon="11.94851528853178" lat="57.66868396662176">
        <ele>54.599998474121094</ele>
        <time>2013-04-13T15:24:14.000Z</time>
      </trkpt>
      <trkpt lon="11.94841805845499" lat="57.66869628801942">
        <ele>54.400001525878906</ele>
        <time>2013-04-13T15:24:21.000Z</time>
      </trkpt>
      <trkpt lon="11.948348740115762" lat="57.66868815757334">
        <ele>54.599998474121094</ele>
        <time>2013-04-13T15:24:27.000Z</time>
      </trkpt>
      <trkpt lon="11.94822259247303" lat="57.66867583617568">
        <ele>55.599998474121094</ele>
        <time>2013-04-13T15:24:36.000Z</time>
      </trkpt>
      <trkpt lon="11.948160734027624" lat="57.66870114952326">
        <ele>56.20000076293945</ele>
        <time>2013-04-13T15:24:43.000Z</time>
      </trkpt>
      <trkpt lon="11.948083955794573" lat="57.66877323389053">
        <ele>56.599998474121094</ele>
        <time>2013-04-13T15:24:53.000Z</time>
      </trkpt>
      <trkpt lon="11.94805109873414" lat="57.66882813535631">
        <ele>57.20000076293945</ele>
        <time>2013-04-13T15:25:00.000Z</time>
      </trkpt>
      <trkpt lon="11.948027294129133" lat="57.66886685974896">
        <ele>58.20000076293945</ele>
        <time>2013-04-13T15:25:05.000Z</time>
      </trkpt>
      <trkpt lon="11.948007261380553" lat="57.66892025247216">
        <ele>59.400001525878906</ele>
        <time>2013-04-13T15:25:14.000Z</time>
      </trkpt>
      <trkpt lon="11.94800608791411" lat="57.6689681969583">
        <ele>60.400001525878906</ele>
        <time>2013-04-13T15:25:20.000Z</time>
      </trkpt>
      <trkpt lon="11.948025450110435" lat="57.668994683772326">
        <ele>61.0</ele>
        <time>2013-04-13T15:25:25.000Z</time>
      </trkpt>
      <trkpt lon="11.948085967451334" lat="57.669045478105545">
        <ele>62.400001525878906</ele>
        <time>2013-04-13T15:25:33.000Z</time>
      </trkpt>
      <trkpt lon="11.948131648823619" lat="57.66907196491957">
        <ele>65.0</ele>
        <time>2013-04-13T15:25:40.000Z</time>
      </trkpt>
      <trkpt lon="11.948172133415937" lat="57.66910725273192">
        <ele>66.4000015258789</ele>
        <time>2013-04-13T15:25:45.000Z</time>
      </trkpt>
      <trkpt lon="11.948178671300411" lat="57.66913114115596">
        <ele>67.4000015258789</ele>
        <time>2013-04-13T15:25:51.000Z</time>
      </trkpt>
      <trkpt lon="11.948193171992898" lat="57.669162740930915">
        <ele>68.0</ele>
        <time>2013-04-13T15:25:57.000Z</time>
      </trkpt>
      <trkpt lon="11.948161656036973" lat="57.66921244561672">
        <ele>69.0</ele>
        <time>2013-04-13T15:26:05.000Z</time>
      </trkpt>
      <trkpt lon="11.948098372668028" lat="57.66927329823375">
        <ele>70.0</ele>
        <time>2013-04-13T15:26:14.000Z</time>
      </trkpt>
      <trkpt lon="11.948056295514107" lat="57.669309340417385">
        <ele>72.0</ele>
        <time>2013-04-13T15:26:21.000Z</time>
      </trkpt>
      <trkpt lon="11.948069790378213" lat="57.66936105675995">
        <ele>72.4000015258789</ele>
        <time>2013-04-13T15:26:27.000Z</time>
      </trkpt>
      <trkpt lon="11.948170540854335" lat="57.669406067579985">
        <ele>74.4000015258789</ele>
        <time>2013-04-13T15:26:35.000Z</time>
      </trkpt>
      <trkpt lon="11.948204236105084" lat="57.66945359297097">
        <ele>75.0</ele>
        <time>2013-04-13T15:26:43.000Z</time>
      </trkpt>
      <trkpt lon="11.948217479512095" lat="57.66946775838733">
        <ele>78.80000305175781</ele>
        <time>2013-04-13T15:27:20.000Z</time>
      </trkpt>
      <trkpt lon="11.948217479512095" lat="57.66946775838733">
        <ele>78.80000305175781</ele>
        <time>2013-04-13T15:27:20.000Z</time>
      </trkpt>
      <trkpt lon="11.9482103548944" lat="57.66952659934759">
        <ele>77.4000015258789</ele>
        <time>2013-04-13T15:27:32.000Z</time>
      </trkpt>
      <trkpt lon="11.948174899443984" lat="57.66960337758064">
        <ele>76.4000015258789</ele>
        <time>2013-04-13T15:27:36.000Z</time>
      </trkpt>
      <trkpt lon="11.948183448985219" lat="57.669620057567954">
        <ele>76.0</ele>
        <time>2013-04-13T15:27:37.000Z</time>
      </trkpt>
      <trkpt lon="11.948062162846327" lat="57.66969113610685">
        <ele>72.4000015258789</ele>
        <time>2013-04-13T15:27:42.000Z</time>
      </trkpt>
      <trkpt lon="11.947935847565532" lat="57.66975995153189">
        <ele>72.0</ele>
        <time>2013-04-13T15:27:46.000Z</time>
      </trkpt>
      <trkpt lon="11.947890752926469" lat="57.669851649552584">
        <ele>69.80000305175781</ele>
        <time>2013-04-13T15:27:52.000Z</time>
      </trkpt>
      <trkpt lon="11.94781456142664" lat="57.66992976889014">
        <ele>68.80000305175781</ele>
        <time>2013-04-13T15:27:56.000Z</time>
      </trkpt>
      <trkpt lon="11.94779746234417" lat="57.669947957620025">
        <ele>69.0</ele>
        <time>2013-04-13T15:27:57.000Z</time>
      </trkpt>
      <trkpt lon="11.947748679667711" lat="57.67000646330416">
        <ele>69.0</ele>
        <time>2013-04-13T15:28:00.000Z</time>
      </trkpt>
      <trkpt lon="11.947688162326813" lat="57.67010159790516">
        <ele>69.80000305175781</ele>
        <time>2013-04-13T15:28:05.000Z</time>
      </trkpt>
      <trkpt lon="11.947671566158533" lat="57.67012665979564">
        <ele>69.80000305175781</ele>
        <time>2013-04-13T15:28:06.000Z</time>
      </trkpt>
      <trkpt lon="11.94761473685503" lat="57.67017845995724">
        <ele>69.80000305175781</ele>
        <time>2013-04-13T15:28:10.000Z</time>
      </trkpt>
      <trkpt lon="11.94759277626872" lat="57.67026429064572">
        <ele>68.80000305175781</ele>
        <time>2013-04-13T15:28:14.000Z</time>
      </trkpt>
      <trkpt lon="11.947536282241344" lat="57.67035783268511">
        <ele>68.80000305175781</ele>
        <time>2013-04-13T15:28:19.000Z</time>
      </trkpt>
      <trkpt lon="11.947500156238675" lat="57.67047098837793">
        <ele>67.80000305175781</ele>
        <time>2013-04-13T15:28:23.000Z</time>
      </trkpt>
      <trkpt lon="11.94753753952682" lat="57.67054349184036">
        <ele>67.80000305175781</ele>
        <time>2013-04-13T15:28:25.000Z</time>
      </trkpt>
      <trkpt lon="11.947625884786248" lat="57.67069009132683">
        <ele>67.80000305175781</ele>
        <time>2013-04-13T15:28:30.000Z</time>
      </trkpt>
      <trkpt lon="11.947695286944509" lat="57.670809952542186">
        <ele>68.0</ele>
        <time>2013-04-13T15:28:34.000Z</time>
      </trkpt>
      <trkpt lon="11.947786565870047" lat="57.670977087691426">
        <ele>67.4000015258789</ele>
        <time>2013-04-13T15:28:39.000Z</time>
      </trkpt>
      <trkpt lon="11.947966441512108" lat="57.67114237882197">
        <ele>69.80000305175781</ele>
        <time>2013-04-13T15:28:43.000Z</time>
      </trkpt>
      <trkpt lon="11.947979852557182" lat="57.67118889838457">
        <ele>69.80000305175781</ele>
        <time>2013-04-13T15:28:44.000Z</time>
      </trkpt>
      <trkpt lon="11.947948252782226" lat="57.67132518813014">
        <ele>69.80000305175781</ele>
        <time>2013-04-13T15:28:49.000Z</time>
      </trkpt>
      <trkpt lon="11.947925454005599" lat="57.67135586589575">
        <ele>69.80000305175781</ele>
        <time>2013-04-13T15:28:51.000Z</time>
      </trkpt>
      <trkpt lon="11.947908187285066" lat="57.67141026444733">
        <ele>70.4000015258789</ele>
        <time>2013-04-13T15:28:54.000Z</time>
      </trkpt>
      <trkpt lon="11.947881784290075" lat="57.67146524973214">
        <ele>70.0</ele>
        <time>2013-04-13T15:28:58.000Z</time>
      </trkpt>
      <trkpt lon="11.947803497314453" lat="57.67158226110041">
        <ele>69.80000305175781</ele>
        <time>2013-04-13T15:29:05.000Z</time>
      </trkpt>
      <trkpt lon="11.947737699374557" lat="57.671680161729455">
        <ele>71.4000015258789</ele>
        <time>2013-04-13T15:29:11.000Z</time>
      </trkpt>
      <trkpt lon="11.947683887556195" lat="57.67183153890073">
        <ele>75.0</ele>
        <time>2013-04-13T15:29:18.000Z</time>
      </trkpt>
      <trkpt lon="11.947623370215297" lat="57.671914687380195">
        <ele>72.0</ele>
        <time>2013-04-13T15:29:22.000Z</time>
      </trkpt>
      <trkpt lon="11.947536785155535" lat="57.67200387082994">
        <ele>72.0</ele>
        <time>2013-04-13T15:29:28.000Z</time>
      </trkpt>
      <trkpt lon="11.947397394105792" lat="57.672076877206564">
        <ele>75.4000015258789</ele>
        <time>2013-04-13T15:29:33.000Z</time>
      </trkpt>
      <trkpt lon="11.947355652227998" lat="57.67214376479387">
        <ele>75.0</ele>
        <time>2013-04-13T15:29:37.000Z</time>
      </trkpt>
      <trkpt lon="11.947239395231009" lat="57.67222079448402">
        <ele>74.4000015258789</ele>
        <time>2013-04-13T15:29:43.000Z</time>
      </trkpt>
      <trkpt lon="11.94714367389679" lat="57.67232146114111">
        <ele>72.4000015258789</ele>
        <time>2013-04-13T15:29:49.000Z</time>
      </trkpt>
      <trkpt lon="11.947101848199964" lat="57.672430677339435">
        <ele>73.0</ele>
        <time>2013-04-13T15:29:55.000Z</time>
      </trkpt>
      <trkpt lon="11.94697855040431" lat="57.67250309698284">
        <ele>70.4000015258789</ele>
        <time>2013-04-13T15:29:59.000Z</time>
      </trkpt>
      <trkpt lon="11.946837650611997" lat="57.67263603396714">
        <ele>67.80000305175781</ele>
        <time>2013-04-13T15:30:05.000Z</time>
      </trkpt>
      <trkpt lon="11.946628857403994" lat="57.67280769534409">
        <ele>66.4000015258789</ele>
        <time>2013-04-13T15:30:11.000Z</time>
      </trkpt>
      <trkpt lon="11.946537243202329" lat="57.67288296483457">
        <ele>65.0</ele>
        <time>2013-04-13T15:30:14.000Z</time>
      </trkpt>
      <trkpt lon="11.94629835896194" lat="57.67296737059951">
        <ele>62.0</ele>
        <time>2013-04-13T15:30:20.000Z</time>
      </trkpt>
      <trkpt lon="11.94598906673491" lat="57.673101648688316">
        <ele>57.599998474121094</ele>
        <time>2013-04-13T15:30:26.000Z</time>
      </trkpt>
      <trkpt lon="11.945642558857799" lat="57.67326048575342">
        <ele>56.20000076293945</ele>
        <time>2013-04-13T15:30:31.000Z</time>
      </trkpt>
      <trkpt lon="11.945340558886528" lat="57.67346626147628">
        <ele>50.400001525878906</ele>
        <time>2013-04-13T15:30:36.000Z</time>
      </trkpt>
      <trkpt lon="11.94521357305348" lat="57.67355494201183">
        <ele>48.20000076293945</ele>
        <time>2013-04-13T15:30:38.000Z</time>
      </trkpt>
      <trkpt lon="11.944900760427117" lat="57.673860881477594">
        <ele>41.599998474121094</ele>
        <time>2013-04-13T15:30:44.000Z</time>
      </trkpt>
      <trkpt lon="11.944840243086219" lat="57.673896588385105">
        <ele>40.599998474121094</ele>
        <time>2013-04-13T15:30:45.000Z</time>
      </trkpt>
      <trkpt lon="11.944623487070203" lat="57.67412549816072">
        <ele>40.599998474121094</ele>
        <time>2013-04-13T15:30:53.000Z</time>
      </trkpt>
      <trkpt lon="11.944625163450837" lat="57.674144860357046">
        <ele>40.599998474121094</ele>
        <time>2013-04-13T15:30:54.000Z</time>
      </trkpt>
      <trkpt lon="11.94461996667087" lat="57.67417788505554">
        <ele>42.400001525878906</ele>
        <time>2013-04-13T15:30:56.000Z</time>
      </trkpt>
      <trkpt lon="11.944626169279218" lat="57.67420009709895">
        <ele>44.20000076293945</ele>
        <time>2013-04-13T15:30:59.000Z</time>
      </trkpt>
      <trkpt lon="11.944615775719285" lat="57.674316857010126">
        <ele>48.400001525878906</ele>
        <time>2013-04-13T15:31:05.000Z</time>
      </trkpt>
      <trkpt lon="11.944623654708266" lat="57.67433747649193">
        <ele>48.400001525878906</ele>
        <time>2013-04-13T15:31:06.000Z</time>
      </trkpt>
      <trkpt lon="11.94468878209591" lat="57.674428755417466">
        <ele>48.400001525878906</ele>
        <time>2013-04-13T15:31:12.000Z</time>
      </trkpt>
      <trkpt lon="11.944744186475873" lat="57.67454769462347">
        <ele>51.400001525878906</ele>
        <time>2013-04-13T15:31:18.000Z</time>
      </trkpt>
      <trkpt lon="11.94475675933063" lat="57.674618354067206">
        <ele>51.0</ele>
        <time>2013-04-13T15:31:21.000Z</time>
      </trkpt>
      <trkpt lon="11.944819455966353" lat="57.6747602596879">
        <ele>52.400001525878906</ele>
        <time>2013-04-13T15:31:26.000Z</time>
      </trkpt>
      <trkpt lon="11.944857342168689" lat="57.67482463270426">
        <ele>52.400001525878906</ele>
        <time>2013-04-13T15:31:28.000Z</time>
      </trkpt>
      <trkpt lon="11.944968067109585" lat="57.674953546375036">
        <ele>51.0</ele>
        <time>2013-04-13T15:31:34.000Z</time>
      </trkpt>
      <trkpt lon="11.94504115730524" lat="57.675037952139974">
        <ele>51.400001525878906</ele>
        <time>2013-04-13T15:31:38.000Z</time>
      </trkpt>
      <trkpt lon="11.945186667144299" lat="57.67519083805382">
        <ele>49.0</ele>
        <time>2013-04-13T15:31:43.000Z</time>
      </trkpt>
      <trkpt lon="11.945201084017754" lat="57.67530114389956">
        <ele>46.20000076293945</ele>
        <time>2013-04-13T15:31:48.000Z</time>
      </trkpt>
      <trkpt lon="11.945207454264164" lat="57.675427962094545">
        <ele>42.400001525878906</ele>
        <time>2013-04-13T15:31:53.000Z</time>
      </trkpt>
      <trkpt lon="11.945235868915915" lat="57.67544816248119">
        <ele>41.599998474121094</ele>
        <time>2013-04-13T15:31:54.000Z</time>
      </trkpt>
      <trkpt lon="11.945397891104221" lat="57.67556207254529">
        <ele>38.400001525878906</ele>
        <time>2013-04-13T15:31:59.000Z</time>
      </trkpt>
      <trkpt lon="11.945407781749964" lat="57.67571655102074">
        <ele>36.400001525878906</ele>
        <time>2013-04-13T15:32:04.000Z</time>
      </trkpt>
      <trkpt lon="11.945531582459807" lat="57.67588905058801">
        <ele>42.599998474121094</ele>
        <time>2013-04-13T15:32:08.000Z</time>
      </trkpt>
      <trkpt lon="11.94567147642374" lat="57.67602978274226">
        <ele>42.599998474121094</ele>
        <time>2013-04-13T15:32:13.000Z</time>
      </trkpt>
      <trkpt lon="11.945752780884504" lat="57.67611217685044">
        <ele>43.20000076293945</ele>
        <time>2013-04-13T15:32:17.000Z</time>
      </trkpt>
      <trkpt lon="11.945762755349278" lat="57.676122235134244">
        <ele>44.599998474121094</ele>
        <time>2013-04-13T15:32:18.000Z</time>
      </trkpt>
      <trkpt lon="11.945703495293856" lat="57.67614687792957">
        <ele>41.599998474121094</ele>
        <time>2013-04-13T15:32:37.000Z</time>
      </trkpt>
      <trkpt lon="11.945802150294185" lat="57.676119888201356">
        <ele>37.400001525878906</ele>
        <time>2013-04-13T15:32:44.000Z</time>
      </trkpt>
      <trkpt lon="11.945809694007039" lat="57.67611226066947">
        <ele>37.0</ele>
        <time>2013-04-13T15:32:45.000Z</time>
      </trkpt>
      <trkpt lon="11.945827882736921" lat="57.676096335053444">
        <ele>35.400001525878906</ele>
        <time>2013-04-13T15:32:47.000Z</time>
      </trkpt>
      <trkpt lon="11.945892674848437" lat="57.67603405751288">
        <ele>33.20000076293945</ele>
        <time>2013-04-13T15:32:54.000Z</time>
      </trkpt>
      <trkpt lon="11.945979092270136" lat="57.675980161875486">
        <ele>26.200000762939453</ele>
        <time>2013-04-13T15:33:00.000Z</time>
      </trkpt>
      <trkpt lon="11.946008680388331" lat="57.675951747223735">
        <ele>24.0</ele>
        <time>2013-04-13T15:33:02.000Z</time>
      </trkpt>
      <trkpt lon="11.946105491369963" lat="57.675868263468146">
        <ele>19.200000762939453</ele>
        <time>2013-04-13T15:33:09.000Z</time>
      </trkpt>
      <trkpt lon="11.946111861616373" lat="57.675861390307546">
        <ele>18.200000762939453</ele>
        <time>2013-04-13T15:33:10.000Z</time>
      </trkpt>
      <trkpt lon="11.946106161922216" lat="57.675797855481505">
        <ele>19.200000762939453</ele>
        <time>2013-04-13T15:33:15.000Z</time>
      </trkpt>
      <trkpt lon="11.946066850796342" lat="57.67571546137333">
        <ele>22.200000762939453</ele>
        <time>2013-04-13T15:33:22.000Z</time>
      </trkpt>
      <trkpt lon="11.946044387295842" lat="57.675651255995035">
        <ele>28.600000381469727</ele>
        <time>2013-04-13T15:33:28.000Z</time>
      </trkpt>
      <trkpt lon="11.946035167202353" lat="57.675644885748625">
        <ele>30.200000762939453</ele>
        <time>2013-04-13T15:33:29.000Z</time>
      </trkpt>
      <trkpt lon="11.945948163047433" lat="57.67552745528519">
        <ele>33.400001525878906</ele>
        <time>2013-04-13T15:33:37.000Z</time>
      </trkpt>
      <trkpt lon="11.946001555770636" lat="57.675445564091206">
        <ele>36.0</ele>
        <time>2013-04-13T15:33:42.000Z</time>
      </trkpt>
      <trkpt lon="11.946079842746258" lat="57.67536845058203">
        <ele>37.400001525878906</ele>
        <time>2013-04-13T15:33:49.000Z</time>
      </trkpt>
      <trkpt lon="11.946147233247757" lat="57.67531338147819">
        <ele>34.20000076293945</ele>
        <time>2013-04-13T15:33:54.000Z</time>
      </trkpt>
      <trkpt lon="11.946242367848754" lat="57.67525328323245">
        <ele>32.20000076293945</ele>
        <time>2013-04-13T15:34:00.000Z</time>
      </trkpt>
      <trkpt lon="11.946278661489487" lat="57.67520735040307">
        <ele>32.599998474121094</ele>
        <time>2013-04-13T15:34:04.000Z</time>
      </trkpt>
      <trkpt lon="11.946336580440402" lat="57.67517449334264">
        <ele>32.20000076293945</ele>
        <time>2013-04-13T15:34:08.000Z</time>
      </trkpt>
      <trkpt lon="11.946496339514852" lat="57.67507843673229">
        <ele>38.0</ele>
        <time>2013-04-13T15:34:17.000Z</time>
      </trkpt>
      <trkpt lon="11.946596754714847" lat="57.67501247115433">
        <ele>37.0</ele>
        <time>2013-04-13T15:34:24.000Z</time>
      </trkpt>
      <trkpt lon="11.946660289540887" lat="57.674939380958676">
        <ele>36.0</ele>
        <time>2013-04-13T15:34:29.000Z</time>
      </trkpt>
      <trkpt lon="11.946746790781617" lat="57.67486587166786">
        <ele>36.0</ele>
        <time>2013-04-13T15:34:35.000Z</time>
      </trkpt>
      <trkpt lon="11.946862461045384" lat="57.67479605041444">
        <ele>33.400001525878906</ele>
        <time>2013-04-13T15:34:41.000Z</time>
      </trkpt>
      <trkpt lon="11.946907471865416" lat="57.6747377961874">
        <ele>31.600000381469727</ele>
        <time>2013-04-13T15:34:45.000Z</time>
      </trkpt>
      <trkpt lon="11.946950135752559" lat="57.674679374322295">
        <ele>31.200000762939453</ele>
        <time>2013-04-13T15:34:50.000Z</time>
      </trkpt>
      <trkpt lon="11.947054658085108" lat="57.67456194385886">
        <ele>31.600000381469727</ele>
        <time>2013-04-13T15:34:57.000Z</time>
      </trkpt>
      <trkpt lon="11.947147781029344" lat="57.67446027137339">
        <ele>31.200000762939453</ele>
        <time>2013-04-13T15:35:02.000Z</time>
      </trkpt>
      <trkpt lon="11.94723503664136" lat="57.67432238906622">
        <ele>36.400001525878906</ele>
        <time>2013-04-13T15:35:07.000Z</time>
      </trkpt>
      <trkpt lon="11.947285579517484" lat="57.67420168966055">
        <ele>42.599998474121094</ele>
        <time>2013-04-13T15:35:12.000Z</time>
      </trkpt>
      <trkpt lon="11.947453552857041" lat="57.67405609600246">
        <ele>46.20000076293945</ele>
        <time>2013-04-13T15:35:18.000Z</time>
      </trkpt>
      <trkpt lon="11.947549441829324" lat="57.673940593376756">
        <ele>46.20000076293945</ele>
        <time>2013-04-13T15:35:22.000Z</time>
      </trkpt>
      <trkpt lon="11.947603253647685" lat="57.67377815209329">
        <ele>48.20000076293945</ele>
        <time>2013-04-13T15:35:28.000Z</time>
      </trkpt>
      <trkpt lon="11.9476318359375" lat="57.6736222486943">
        <ele>53.400001525878906</ele>
        <time>2013-04-13T15:35:33.000Z</time>
      </trkpt>
      <trkpt lon="11.947690760716796" lat="57.67347506247461">
        <ele>55.599998474121094</ele>
        <time>2013-04-13T15:35:38.000Z</time>
      </trkpt>
      <trkpt lon="11.947834258899093" lat="57.67330574803054">
        <ele>55.599998474121094</ele>
        <time>2013-04-13T15:35:44.000Z</time>
      </trkpt>
      <trkpt lon="11.948024360463023" lat="57.67309016548097">
        <ele>51.0</ele>
        <time>2013-04-13T15:35:51.000Z</time>
      </trkpt>
      <trkpt lon="11.94817615672946" lat="57.672919761389494">
        <ele>47.400001525878906</ele>
        <time>2013-04-13T15:35:57.000Z</time>
      </trkpt>
      <trkpt lon="11.948345554992557" lat="57.67277584411204">
        <ele>50.0</ele>
        <time>2013-04-13T15:36:03.000Z</time>
      </trkpt>
      <trkpt lon="11.948539596050978" lat="57.67265849746764">
        <ele>49.400001525878906</ele>
        <time>2013-04-13T15:36:08.000Z</time>
      </trkpt>
      <trkpt lon="11.948746461421251" lat="57.67252824269235">
        <ele>47.20000076293945</ele>
        <time>2013-04-13T15:36:14.000Z</time>
      </trkpt>
      <trkpt lon="11.948890965431929" lat="57.67237267456949">
        <ele>40.400001525878906</ele>
        <time>2013-04-13T15:36:21.000Z</time>
      </trkpt>
      <trkpt lon="11.949152145534754" lat="57.67211736179888">
        <ele>39.400001525878906</ele>
        <time>2013-04-13T15:36:29.000Z</time>
      </trkpt>
      <trkpt lon="11.949362363666296" lat="57.67192575149238">
        <ele>40.400001525878906</ele>
        <time>2013-04-13T15:36:34.000Z</time>
      </trkpt>
      <trkpt lon="11.949447356164455" lat="57.671781834214926">
        <ele>45.20000076293945</ele>
        <time>2013-04-13T15:36:37.000Z</time>
      </trkpt>
      <trkpt lon="11.94961323402822" lat="57.67170497216284">
        <ele>45.20000076293945</ele>
        <time>2013-04-13T15:36:41.000Z</time>
      </trkpt>
      <trkpt lon="11.949798054993153" lat="57.67171025276184">
        <ele>48.400001525878906</ele>
        <time>2013-04-13T15:36:44.000Z</time>
      </trkpt>
      <trkpt lon="11.949914479628205" lat="57.671715784817934">
        <ele>50.0</ele>
        <time>2013-04-13T15:36:46.000Z</time>
      </trkpt>
      <trkpt lon="11.950160069391131" lat="57.67175165936351">
        <ele>50.0</ele>
        <time>2013-04-13T15:36:51.000Z</time>
      </trkpt>
      <trkpt lon="11.95035008713603" lat="57.67177747562528">
        <ele>50.0</ele>
        <time>2013-04-13T15:36:56.000Z</time>
      </trkpt>
      <trkpt lon="11.950486460700631" lat="57.671775463968515">
        <ele>53.0</ele>
        <time>2013-04-13T15:37:01.000Z</time>
      </trkpt>
      <trkpt lon="11.950760884210467" lat="57.67173958942294">
        <ele>51.400001525878906</ele>
        <time>2013-04-13T15:37:08.000Z</time>
      </trkpt>
      <trkpt lon="11.950847888365388" lat="57.671726094558835">
        <ele>53.599998474121094</ele>
        <time>2013-04-13T15:37:11.000Z</time>
      </trkpt>
      <trkpt lon="11.951116779819131" lat="57.67169415950775">
        <ele>63.0</ele>
        <time>2013-04-13T15:37:18.000Z</time>
      </trkpt>
      <trkpt lon="11.951192552223802" lat="57.67168435268104">
        <ele>65.0</ele>
        <time>2013-04-13T15:37:21.000Z</time>
      </trkpt>
      <trkpt lon="11.951334374025464" lat="57.67166247591376">
        <ele>67.80000305175781</ele>
        <time>2013-04-13T15:37:26.000Z</time>
      </trkpt>
      <trkpt lon="11.951403860002756" lat="57.671661134809256">
        <ele>67.4000015258789</ele>
        <time>2013-04-13T15:37:32.000Z</time>
      </trkpt>
      <trkpt lon="11.951452139765024" lat="57.671673372387886">
        <ele>68.0</ele>
        <time>2013-04-13T15:37:38.000Z</time>
      </trkpt>
      <trkpt lon="11.951499748975039" lat="57.671696254983544">
        <ele>69.0</ele>
        <time>2013-04-13T15:37:43.000Z</time>
      </trkpt>
      <trkpt lon="11.95153503678739" lat="57.67174495384097">
        <ele>65.0</ele>
        <time>2013-04-13T15:37:51.000Z</time>
      </trkpt>
      <trkpt lon="11.95153989829123" lat="57.67175526358187">
        <ele>64.4000015258789</ele>
        <time>2013-04-13T15:37:52.000Z</time>
      </trkpt>
      <trkpt lon="11.951531181111932" lat="57.671835059300065">
        <ele>61.0</ele>
        <time>2013-04-13T15:37:57.000Z</time>
      </trkpt>
      <trkpt lon="11.951534450054169" lat="57.67196757718921">
        <ele>61.400001525878906</ele>
        <time>2013-04-13T15:38:04.000Z</time>
      </trkpt>
      <trkpt lon="11.95154626853764" lat="57.67208877950907">
        <ele>61.400001525878906</ele>
        <time>2013-04-13T15:38:10.000Z</time>
      </trkpt>
      <trkpt lon="11.951579796150327" lat="57.67220176756382">
        <ele>64.0</ele>
        <time>2013-04-13T15:38:15.000Z</time>
      </trkpt>
      <trkpt lon="11.951620951294899" lat="57.67233663238585">
        <ele>67.4000015258789</ele>
        <time>2013-04-13T15:38:21.000Z</time>
      </trkpt>
      <trkpt lon="11.951651461422443" lat="57.672420870512724">
        <ele>67.80000305175781</ele>
        <time>2013-04-13T15:38:28.000Z</time>
      </trkpt>
      <trkpt lon="11.951689850538969" lat="57.672524051740766">
        <ele>71.0</ele>
        <time>2013-04-13T15:38:34.000Z</time>
      </trkpt>
      <trkpt lon="11.951672499999404" lat="57.67259119078517">
        <ele>69.80000305175781</ele>
        <time>2013-04-13T15:38:39.000Z</time>
      </trkpt>
      <trkpt lon="11.951560182496905" lat="57.672676937654614">
        <ele>70.0</ele>
        <time>2013-04-13T15:38:46.000Z</time>
      </trkpt>
      <trkpt lon="11.951519949361682" lat="57.672714656218886">
        <ele>69.80000305175781</ele>
        <time>2013-04-13T15:38:50.000Z</time>
      </trkpt>
      <trkpt lon="11.951417438685894" lat="57.672755643725395">
        <ele>70.0</ele>
        <time>2013-04-13T15:38:55.000Z</time>
      </trkpt>
      <trkpt lon="11.951346360147" lat="57.672771234065294">
        <ele>71.4000015258789</ele>
        <time>2013-04-13T15:38:59.000Z</time>
      </trkpt>
      <trkpt lon="11.951240580528975" lat="57.67277576029301">
        <ele>72.0</ele>
        <time>2013-04-13T15:39:04.000Z</time>
      </trkpt>
      <trkpt lon="11.95109087973833" lat="57.67277936451137">
        <ele>73.4000015258789</ele>
        <time>2013-04-13T15:39:13.000Z</time>
      </trkpt>
      <trkpt lon="11.950998762622476" lat="57.67277844250202">
        <ele>74.4000015258789</ele>
        <time>2013-04-13T15:39:19.000Z</time>
      </trkpt>
      <trkpt lon="11.950896251946688" lat="57.6727778557688">
        <ele>74.4000015258789</ele>
        <time>2013-04-13T15:39:27.000Z</time>
      </trkpt>
      <trkpt lon="11.950844954699278" lat="57.67278456129134">
        <ele>75.4000015258789</ele>
        <time>2013-04-13T15:39:33.000Z</time>
      </trkpt>
      <trkpt lon="11.950729954987764" lat="57.67278414219618">
        <ele>77.0</ele>
        <time>2013-04-13T15:39:42.000Z</time>
      </trkpt>
      <trkpt lon="11.9506779871881" lat="57.67278866842389">
        <ele>77.0</ele>
        <time>2013-04-13T15:39:45.000Z</time>
      </trkpt>
      <trkpt lon="11.950566675513983" lat="57.672832338139415">
        <ele>77.0</ele>
        <time>2013-04-13T15:39:53.000Z</time>
      </trkpt>
      <trkpt lon="11.9504966866225" lat="57.67288187518716">
        <ele>77.0</ele>
        <time>2013-04-13T15:40:00.000Z</time>
      </trkpt>
      <trkpt lon="11.950480761006474" lat="57.672911463305354">
        <ele>77.4000015258789</ele>
        <time>2013-04-13T15:40:03.000Z</time>
      </trkpt>
      <trkpt lon="11.950514791533351" lat="57.67294733785093">
        <ele>78.0</ele>
        <time>2013-04-13T15:40:07.000Z</time>
      </trkpt>
      <trkpt lon="11.950601376593113" lat="57.67298145219684">
        <ele>79.4000015258789</ele>
        <time>2013-04-13T15:40:14.000Z</time>
      </trkpt>
      <trkpt lon="11.950612273067236" lat="57.67299075610936">
        <ele>79.80000305175781</ele>
        <time>2013-04-13T15:40:15.000Z</time>
      </trkpt>
      <trkpt lon="11.950637754052877" lat="57.6730249542743">
        <ele>80.4000015258789</ele>
        <time>2013-04-13T15:40:21.000Z</time>
      </trkpt>
      <trkpt lon="11.950642950832844" lat="57.67306376248598">
        <ele>79.80000305175781</ele>
        <time>2013-04-13T15:40:28.000Z</time>
      </trkpt>
      <trkpt lon="11.950690057128668" lat="57.673103576526046">
        <ele>80.80000305175781</ele>
        <time>2013-04-13T15:40:33.000Z</time>
      </trkpt>
      <trkpt lon="11.950758453458548" lat="57.67318094149232">
        <ele>80.4000015258789</ele>
        <time>2013-04-13T15:40:43.000Z</time>
      </trkpt>
      <trkpt lon="11.950833555310965" lat="57.67324456013739">
        <ele>80.4000015258789</ele>
        <time>2013-04-13T15:40:50.000Z</time>
      </trkpt>
      <trkpt lon="11.950846798717976" lat="57.67332569696009">
        <ele>84.0</ele>
        <time>2013-04-13T15:41:19.000Z</time>
      </trkpt>
      <trkpt lon="11.950846295803785" lat="57.673327289521694">
        <ele>85.0</ele>
        <time>2013-04-13T15:41:23.000Z</time>
      </trkpt>
      <trkpt lon="11.95084998384118" lat="57.673342963680625">
        <ele>84.0</ele>
        <time>2013-04-13T15:41:30.000Z</time>
      </trkpt>
      <trkpt lon="11.950676562264562" lat="57.67337607219815">
        <ele>84.4000015258789</ele>
        <time>2013-04-13T15:41:35.000Z</time>
      </trkpt>
      <trkpt lon="11.950603052973747" lat="57.67346885986626">
        <ele>84.4000015258789</ele>
        <time>2013-04-13T15:41:39.000Z</time>
      </trkpt>
      <trkpt lon="11.950476486235857" lat="57.67363247461617">
        <ele>83.0</ele>
        <time>2013-04-13T15:41:45.000Z</time>
      </trkpt>
      <trkpt lon="11.950396355241537" lat="57.67371227033436">
        <ele>81.80000305175781</ele>
        <time>2013-04-13T15:41:48.000Z</time>
      </trkpt>
      <trkpt lon="11.950490484014153" lat="57.673808662220836">
        <ele>79.80000305175781</ele>
        <time>2013-04-13T15:41:53.000Z</time>
      </trkpt>
      <trkpt lon="11.95056315511465" lat="57.67385928891599">
        <ele>79.4000015258789</ele>
        <time>2013-04-13T15:41:55.000Z</time>
      </trkpt>
      <trkpt lon="11.950762057676911" lat="57.673978144302964">
        <ele>75.4000015258789</ele>
        <time>2013-04-13T15:42:00.000Z</time>
      </trkpt>
      <trkpt lon="11.950785862281919" lat="57.67402826808393">
        <ele>75.4000015258789</ele>
        <time>2013-04-13T15:42:02.000Z</time>
      </trkpt>
      <trkpt lon="11.95084118284285" lat="57.67409624531865">
        <ele>76.0</ele>
        <time>2013-04-13T15:42:06.000Z</time>
      </trkpt>
      <trkpt lon="11.950834980234504" lat="57.67413295805454">
        <ele>75.4000015258789</ele>
        <time>2013-04-13T15:42:08.000Z</time>
      </trkpt>
      <trkpt lon="11.950712855905294" lat="57.674236139282584">
        <ele>75.0</ele>
        <time>2013-04-13T15:42:13.000Z</time>
      </trkpt>
      <trkpt lon="11.950705396011472" lat="57.674259692430496">
        <ele>74.4000015258789</ele>
        <time>2013-04-13T15:42:14.000Z</time>
      </trkpt>
      <trkpt lon="11.950678071007133" lat="57.67441534437239">
        <ele>74.4000015258789</ele>
        <time>2013-04-13T15:42:20.000Z</time>
      </trkpt>
      <trkpt lon="11.950595173984766" lat="57.67446965910494">
        <ele>74.4000015258789</ele>
        <time>2013-04-13T15:42:23.000Z</time>
      </trkpt>
      <trkpt lon="11.9505899772048" lat="57.67455507069826">
        <ele>75.0</ele>
        <time>2013-04-13T15:42:27.000Z</time>
      </trkpt>
      <trkpt lon="11.950561394914985" lat="57.67463025636971">
        <ele>75.0</ele>
        <time>2013-04-13T15:42:32.000Z</time>
      </trkpt>
      <trkpt lon="11.950536081567407" lat="57.67464945092797">
        <ele>74.4000015258789</ele>
        <time>2013-04-13T15:42:33.000Z</time>
      </trkpt>
      <trkpt lon="11.950490232557058" lat="57.674687672406435">
        <ele>74.0</ele>
        <time>2013-04-13T15:42:35.000Z</time>
      </trkpt>
      <trkpt lon="11.950543457642198" lat="57.67477383837104">
        <ele>75.4000015258789</ele>
        <time>2013-04-13T15:42:39.000Z</time>
      </trkpt>
      <trkpt lon="11.950471960008144" lat="57.674909541383386">
        <ele>77.4000015258789</ele>
        <time>2013-04-13T15:42:45.000Z</time>
      </trkpt>
      <trkpt lon="11.950491489842534" lat="57.67498045228422">
        <ele>77.4000015258789</ele>
        <time>2013-04-13T15:42:49.000Z</time>
      </trkpt>
      <trkpt lon="11.950473468750715" lat="57.67507583834231">
        <ele>77.4000015258789</ele>
        <time>2013-04-13T15:42:53.000Z</time>
      </trkpt>
      <trkpt lon="11.950466763228178" lat="57.67509645782411">
        <ele>78.0</ele>
        <time>2013-04-13T15:42:54.000Z</time>
      </trkpt>
      <trkpt lon="11.950417896732688" lat="57.67524196766317">
        <ele>79.4000015258789</ele>
        <time>2013-04-13T15:43:00.000Z</time>
      </trkpt>
      <trkpt lon="11.950405575335026" lat="57.67526728101075">
        <ele>79.80000305175781</ele>
        <time>2013-04-13T15:43:01.000Z</time>
      </trkpt>
      <trkpt lon="11.950287139043212" lat="57.67539309337735">
        <ele>79.4000015258789</ele>
        <time>2013-04-13T15:43:06.000Z</time>
      </trkpt>
      <trkpt lon="11.950120758265257" lat="57.675506081432104">
        <ele>78.0</ele>
        <time>2013-04-13T15:43:11.000Z</time>
      </trkpt>
      <trkpt lon="11.95002713240683" lat="57.67561395652592">
        <ele>77.4000015258789</ele>
        <time>2013-04-13T15:43:15.000Z</time>
      </trkpt>
      <trkpt lon="11.950097791850567" lat="57.67568956129253">
        <ele>78.80000305175781</ele>
        <time>2013-04-13T15:43:20.000Z</time>
      </trkpt>
      <trkpt lon="11.950161242857575" lat="57.675710851326585">
        <ele>78.80000305175781</ele>
        <time>2013-04-13T15:43:22.000Z</time>
      </trkpt>
      <trkpt lon="11.950119668617845" lat="57.67582836560905">
        <ele>78.0</ele>
        <time>2013-04-13T15:43:27.000Z</time>
      </trkpt>
      <trkpt lon="11.949939457699656" lat="57.67588209360838">
        <ele>77.4000015258789</ele>
        <time>2013-04-13T15:43:31.000Z</time>
      </trkpt>
      <trkpt lon="11.94985706359148" lat="57.675941940397024">
        <ele>76.0</ele>
        <time>2013-04-13T15:43:34.000Z</time>
      </trkpt>
      <trkpt lon="11.949731754139066" lat="57.67611997202039">
        <ele>72.0</ele>
        <time>2013-04-13T15:43:40.000Z</time>
      </trkpt>
      <trkpt lon="11.949654640629888" lat="57.67626766115427">
        <ele>71.0</ele>
        <time>2013-04-13T15:43:44.000Z</time>
      </trkpt>
      <trkpt lon="11.949610970914364" lat="57.6763697527349">
        <ele>68.0</ele>
        <time>2013-04-13T15:43:48.000Z</time>
      </trkpt>
      <trkpt lon="11.949413493275642" lat="57.676516184583306">
        <ele>65.80000305175781</ele>
        <time>2013-04-13T15:43:53.000Z</time>
      </trkpt>
      <trkpt lon="11.949093053117394" lat="57.67666504718363">
        <ele>62.0</ele>
        <time>2013-04-13T15:43:58.000Z</time>
      </trkpt>
      <trkpt lon="11.948911333456635" lat="57.6767944637686">
        <ele>57.599998474121094</ele>
        <time>2013-04-13T15:44:03.000Z</time>
      </trkpt>
      <trkpt lon="11.948739839717746" lat="57.67688825726509">
        <ele>53.0</ele>
        <time>2013-04-13T15:44:07.000Z</time>
      </trkpt>
      <trkpt lon="11.948498943820596" lat="57.67699068412185">
        <ele>47.20000076293945</ele>
        <time>2013-04-13T15:44:12.000Z</time>
      </trkpt>
      <trkpt lon="11.94833155721426" lat="57.67699076794088">
        <ele>38.400001525878906</ele>
        <time>2013-04-13T15:44:17.000Z</time>
      </trkpt>
      <trkpt lon="11.94830666296184" lat="57.67699588090181">
        <ele>36.400001525878906</ele>
        <time>2013-04-13T15:44:18.000Z</time>
      </trkpt>
      <trkpt lon="11.948079261928797" lat="57.67709277570248">
        <ele>28.600000381469727</ele>
        <time>2013-04-13T15:44:24.000Z</time>
      </trkpt>
      <trkpt lon="11.94786636158824" lat="57.677158238366246">
        <ele>23.200000762939453</ele>
        <time>2013-04-13T15:44:29.000Z</time>
      </trkpt>
      <trkpt lon="11.947823781520128" lat="57.67717558890581">
        <ele>21.600000381469727</ele>
        <time>2013-04-13T15:44:30.000Z</time>
      </trkpt>
      <trkpt lon="11.947647258639336" lat="57.67729335464537">
        <ele>18.600000381469727</ele>
        <time>2013-04-13T15:44:35.000Z</time>
      </trkpt>
      <trkpt lon="11.947560338303447" lat="57.677400056272745">
        <ele>19.200000762939453</ele>
        <time>2013-04-13T15:44:38.000Z</time>
      </trkpt>
      <trkpt lon="11.947560338303447" lat="57.677400056272745">
        <ele>19.200000762939453</ele>
        <time>2013-04-13T15:44:38.000Z</time>
      </trkpt>
      <trkpt lon="11.947560757398605" lat="57.67747423611581">
        <ele>21.600000381469727</ele>
        <time>2013-04-13T15:44:42.000Z</time>
      </trkpt>
      <trkpt lon="11.947552962228656" lat="57.67749845981598">
        <ele>26.200000762939453</ele>
        <time>2013-04-13T15:44:55.000Z</time>
      </trkpt>
      <trkpt lon="11.947560254484415" lat="57.677537854760885">
        <ele>28.0</ele>
        <time>2013-04-13T15:45:03.000Z</time>
      </trkpt>
      <trkpt lon="11.947654969990253" lat="57.67761035822332">
        <ele>29.600000381469727</ele>
        <time>2013-04-13T15:45:09.000Z</time>
      </trkpt>
      <trkpt lon="11.947766784578562" lat="57.67766618169844">
        <ele>29.600000381469727</ele>
        <time>2013-04-13T15:45:14.000Z</time>
      </trkpt>
      <trkpt lon="11.948055876418948" lat="57.677748491987586">
        <ele>30.600000381469727</ele>
        <time>2013-04-13T15:45:21.000Z</time>
      </trkpt>
      <trkpt lon="11.948385871946812" lat="57.67778285779059">
        <ele>28.200000762939453</ele>
        <time>2013-04-13T15:45:28.000Z</time>
      </trkpt>
      <trkpt lon="11.948757776990533" lat="57.67779308371246">
        <ele>25.0</ele>
        <time>2013-04-13T15:45:34.000Z</time>
      </trkpt>
      <trkpt lon="11.94892625324428" lat="57.67781035043299">
        <ele>24.600000381469727</ele>
        <time>2013-04-13T15:45:37.000Z</time>
      </trkpt>
      <trkpt lon="11.949067739769816" lat="57.67774924635887">
        <ele>22.600000381469727</ele>
        <time>2013-04-13T15:45:43.000Z</time>
      </trkpt>
      <trkpt lon="11.94919254630804" lat="57.67768177203834">
        <ele>17.200000762939453</ele>
        <time>2013-04-13T15:45:48.000Z</time>
      </trkpt>
      <trkpt lon="11.949269156903028" lat="57.677626786753535">
        <ele>17.200000762939453</ele>
        <time>2013-04-13T15:45:52.000Z</time>
      </trkpt>
      <trkpt lon="11.949385832995176" lat="57.67760993912816">
        <ele>17.600000381469727</ele>
        <time>2013-04-13T15:45:56.000Z</time>
      </trkpt>
      <trkpt lon="11.949613569304347" lat="57.67765293829143">
        <ele>19.200000762939453</ele>
        <time>2013-04-13T15:46:03.000Z</time>
      </trkpt>
      <trkpt lon="11.949732257053256" lat="57.67767238430679">
        <ele>18.600000381469727</ele>
        <time>2013-04-13T15:46:06.000Z</time>
      </trkpt>
      <trkpt lon="11.949848933145404" lat="57.67765645869076">
        <ele>16.200000762939453</ele>
        <time>2013-04-13T15:46:11.000Z</time>
      </trkpt>
      <trkpt lon="11.949940463528037" lat="57.67764958553016">
        <ele>19.600000381469727</ele>
        <time>2013-04-13T15:46:15.000Z</time>
      </trkpt>
      <trkpt lon="11.949998466297984" lat="57.677626786753535">
        <ele>23.200000762939453</ele>
        <time>2013-04-13T15:46:19.000Z</time>
      </trkpt>
      <trkpt lon="11.950093768537045" lat="57.67752109095454">
        <ele>31.200000762939453</ele>
        <time>2013-04-13T15:46:26.000Z</time>
      </trkpt>
      <trkpt lon="11.95009594783187" lat="57.67749845981598">
        <ele>31.200000762939453</ele>
        <time>2013-04-13T15:46:28.000Z</time>
      </trkpt>
      <trkpt lon="11.950148167088628" lat="57.677450850605965">
        <ele>34.400001525878906</ele>
        <time>2013-04-13T15:46:32.000Z</time>
      </trkpt>
      <trkpt lon="11.950202649459243" lat="57.67737004905939">
        <ele>36.400001525878906</ele>
        <time>2013-04-13T15:46:39.000Z</time>
      </trkpt>
      <trkpt lon="11.950328797101974" lat="57.67730785533786">
        <ele>36.400001525878906</ele>
        <time>2013-04-13T15:46:48.000Z</time>
      </trkpt>
      <trkpt lon="11.950412951409817" lat="57.67726259306073">
        <ele>41.400001525878906</ele>
        <time>2013-04-13T15:46:56.000Z</time>
      </trkpt>
      <trkpt lon="11.950464835390449" lat="57.67722965218127">
        <ele>41.599998474121094</ele>
        <time>2013-04-13T15:47:03.000Z</time>
      </trkpt>
      <trkpt lon="11.950473552569747" lat="57.67723116092384">
        <ele>40.599998474121094</ele>
        <time>2013-04-13T15:47:07.000Z</time>
      </trkpt>
      <trkpt lon="11.950524346902966" lat="57.67718715593219">
        <ele>40.400001525878906</ele>
        <time>2013-04-13T15:47:14.000Z</time>
      </trkpt>
      <trkpt lon="11.950588468462229" lat="57.67713543958962">
        <ele>40.0</ele>
        <time>2013-04-13T15:47:23.000Z</time>
      </trkpt>
      <trkpt lon="11.950622079893947" lat="57.677107863128185">
        <ele>40.0</ele>
        <time>2013-04-13T15:47:30.000Z</time>
      </trkpt>
      <trkpt lon="11.9507004506886" lat="57.67706419341266">
        <ele>36.400001525878906</ele>
        <time>2013-04-13T15:47:38.000Z</time>
      </trkpt>
      <trkpt lon="11.950793070718646" lat="57.677032593637705">
        <ele>31.600000381469727</ele>
        <time>2013-04-13T15:47:45.000Z</time>
      </trkpt>
      <trkpt lon="11.950868759304285" lat="57.67700317315757">
        <ele>30.200000762939453</ele>
        <time>2013-04-13T15:47:51.000Z</time>
      </trkpt>
      <trkpt lon="11.950942939147353" lat="57.676968555897474">
        <ele>33.400001525878906</ele>
        <time>2013-04-13T15:47:58.000Z</time>
      </trkpt>
      <trkpt lon="11.951088951900601" lat="57.67690879292786">
        <ele>37.0</ele>
        <time>2013-04-13T15:48:05.000Z</time>
      </trkpt>
      <trkpt lon="11.951106889173388" lat="57.67690108157694">
        <ele>37.0</ele>
        <time>2013-04-13T15:48:06.000Z</time>
      </trkpt>
      <trkpt lon="11.951220463961363" lat="57.676865961402655">
        <ele>45.20000076293945</ele>
        <time>2013-04-13T15:48:15.000Z</time>
      </trkpt>
      <trkpt lon="11.951313754543662" lat="57.676865458488464">
        <ele>48.20000076293945</ele>
        <time>2013-04-13T15:48:22.000Z</time>
      </trkpt>
      <trkpt lon="11.951390951871872" lat="57.67685875296593">
        <ele>49.0</ele>
        <time>2013-04-13T15:48:31.000Z</time>
      </trkpt>
      <trkpt lon="11.951478961855173" lat="57.6768758520484">
        <ele>50.0</ele>
        <time>2013-04-13T15:48:38.000Z</time>
      </trkpt>
      <trkpt lon="11.95158239454031" lat="57.6769136544317">
        <ele>52.0</ele>
        <time>2013-04-13T15:48:48.000Z</time>
      </trkpt>
      <trkpt lon="11.951656239107251" lat="57.676893370226026">
        <ele>53.599998474121094</ele>
        <time>2013-04-13T15:48:55.000Z</time>
      </trkpt>
      <trkpt lon="11.951669063419104" lat="57.67688515596092">
        <ele>53.400001525878906</ele>
        <time>2013-04-13T15:48:56.000Z</time>
      </trkpt>
      <trkpt lon="11.951789259910583" lat="57.67679764889181">
        <ele>53.400001525878906</ele>
        <time>2013-04-13T15:49:04.000Z</time>
      </trkpt>
      <trkpt lon="11.951844748109579" lat="57.67676655203104">
        <ele>53.599998474121094</ele>
        <time>2013-04-13T15:49:07.000Z</time>
      </trkpt>
      <trkpt lon="11.951906690374017" lat="57.67675129696727">
        <ele>54.400001525878906</ele>
        <time>2013-04-13T15:49:10.000Z</time>
      </trkpt>
      <trkpt lon="11.952025797218084" lat="57.6767167635262">
        <ele>56.599998474121094</ele>
        <time>2013-04-13T15:49:14.000Z</time>
      </trkpt>
      <trkpt lon="11.952280858531594" lat="57.67662154510617">
        <ele>59.400001525878906</ele>
        <time>2013-04-13T15:49:22.000Z</time>
      </trkpt>
      <trkpt lon="11.952433660626411" lat="57.6765544898808">
        <ele>58.20000076293945</ele>
        <time>2013-04-13T15:49:28.000Z</time>
      </trkpt>
      <trkpt lon="11.952589061111212" lat="57.676452063024044">
        <ele>58.400001525878906</ele>
        <time>2013-04-13T15:49:34.000Z</time>
      </trkpt>
      <trkpt lon="11.952764661982656" lat="57.67633588984609">
        <ele>58.400001525878906</ele>
        <time>2013-04-13T15:49:41.000Z</time>
      </trkpt>
      <trkpt lon="11.95291587151587" lat="57.67622985877097">
        <ele>59.400001525878906</ele>
        <time>2013-04-13T15:49:48.000Z</time>
      </trkpt>
      <trkpt lon="11.9530731998384" lat="57.676150146871805">
        <ele>60.20000076293945</ele>
        <time>2013-04-13T15:49:54.000Z</time>
      </trkpt>
      <trkpt lon="11.95323689840734" lat="57.676071440801024">
        <ele>59.20000076293945</ele>
        <time>2013-04-13T15:50:00.000Z</time>
      </trkpt>
      <trkpt lon="11.953353490680456" lat="57.67600614577532">
        <ele>59.20000076293945</ele>
        <time>2013-04-13T15:50:05.000Z</time>
      </trkpt>
      <trkpt lon="11.953403865918517" lat="57.675861390307546">
        <ele>56.599998474121094</ele>
        <time>2013-04-13T15:50:12.000Z</time>
      </trkpt>
      <trkpt lon="11.953343264758587" lat="57.67573365010321">
        <ele>56.20000076293945</ele>
        <time>2013-04-13T15:50:18.000Z</time>
      </trkpt>
      <trkpt lon="11.9533184543252" lat="57.675633151084185">
        <ele>56.599998474121094</ele>
        <time>2013-04-13T15:50:24.000Z</time>
      </trkpt>
      <trkpt lon="11.953318370506167" lat="57.675618063658476">
        <ele>56.599998474121094</ele>
        <time>2013-04-13T15:50:25.000Z</time>
      </trkpt>
      <trkpt lon="11.953324154019356" lat="57.67553877085447">
        <ele>58.20000076293945</ele>
        <time>2013-04-13T15:50:29.000Z</time>
      </trkpt>
      <trkpt lon="11.953338151797652" lat="57.675383035093546">
        <ele>60.400001525878906</ele>
        <time>2013-04-13T15:50:36.000Z</time>
      </trkpt>
      <trkpt lon="11.953331278637052" lat="57.675366438925266">
        <ele>60.20000076293945</ele>
        <time>2013-04-13T15:50:37.000Z</time>
      </trkpt>
      <trkpt lon="11.953476453199983" lat="57.67531489022076">
        <ele>64.0</ele>
        <time>2013-04-13T15:50:43.000Z</time>
      </trkpt>
      <trkpt lon="11.953572845086455" lat="57.67525194212794">
        <ele>65.4000015258789</ele>
        <time>2013-04-13T15:50:49.000Z</time>
      </trkpt>
      <trkpt lon="11.953628836199641" lat="57.67517055384815">
        <ele>64.4000015258789</ele>
        <time>2013-04-13T15:50:54.000Z</time>
      </trkpt>
      <trkpt lon="11.95372849702835" lat="57.675040969625115">
        <ele>64.4000015258789</ele>
        <time>2013-04-13T15:51:01.000Z</time>
      </trkpt>
      <trkpt lon="11.953828493133187" lat="57.67496335320175">
        <ele>65.0</ele>
        <time>2013-04-13T15:51:07.000Z</time>
      </trkpt>
      <trkpt lon="11.953911641612649" lat="57.6748778577894">
        <ele>64.4000015258789</ele>
        <time>2013-04-13T15:51:13.000Z</time>
      </trkpt>
      <trkpt lon="11.954015074297786" lat="57.67480208538473">
        <ele>66.80000305175781</ele>
        <time>2013-04-13T15:51:19.000Z</time>
      </trkpt>
      <trkpt lon="11.95415404625237" lat="57.67471315339208">
        <ele>69.80000305175781</ele>
        <time>2013-04-13T15:51:26.000Z</time>
      </trkpt>
      <trkpt lon="11.954267034307122" lat="57.67462774179876">
        <ele>71.4000015258789</ele>
        <time>2013-04-13T15:51:34.000Z</time>
      </trkpt>
      <trkpt lon="11.954424865543842" lat="57.674534199759364">
        <ele>74.0</ele>
        <time>2013-04-13T15:51:43.000Z</time>
      </trkpt>
      <trkpt lon="11.954556796699762" lat="57.67448399215937">
        <ele>72.4000015258789</ele>
        <time>2013-04-13T15:51:49.000Z</time>
      </trkpt>
      <trkpt lon="11.954715298488736" lat="57.67443906515837">
        <ele>71.4000015258789</ele>
        <time>2013-04-13T15:51:55.000Z</time>
      </trkpt>
      <trkpt lon="11.954847564920783" lat="57.674349546432495">
        <ele>71.0</ele>
        <time>2013-04-13T15:52:00.000Z</time>
      </trkpt>
      <trkpt lon="11.955064153298736" lat="57.67421484924853">
        <ele>72.4000015258789</ele>
        <time>2013-04-13T15:52:08.000Z</time>
      </trkpt>
      <trkpt lon="11.955332541838288" lat="57.67405215650797">
        <ele>77.0</ele>
        <time>2013-04-13T15:52:18.000Z</time>
      </trkpt>
      <trkpt lon="11.955498587340117" lat="57.673987951129675">
        <ele>78.80000305175781</ele>
        <time>2013-04-13T15:52:25.000Z</time>
      </trkpt>
      <trkpt lon="11.955697573721409" lat="57.673901952803135">
        <ele>82.0</ele>
        <time>2013-04-13T15:52:33.000Z</time>
      </trkpt>
      <trkpt lon="11.95585255511105" lat="57.67383808270097">
        <ele>84.0</ele>
        <time>2013-04-13T15:52:39.000Z</time>
      </trkpt>
      <trkpt lon="11.956042656674981" lat="57.67374336719513">
        <ele>86.4000015258789</ele>
        <time>2013-04-13T15:52:47.000Z</time>
      </trkpt>
      <trkpt lon="11.956219263374805" lat="57.67368025146425">
        <ele>86.4000015258789</ele>
        <time>2013-04-13T15:52:54.000Z</time>
      </trkpt>
      <trkpt lon="11.956419758498669" lat="57.67359006218612">
        <ele>86.0</ele>
        <time>2013-04-13T15:53:02.000Z</time>
      </trkpt>
      <trkpt lon="11.956568285822868" lat="57.673513535410166">
        <ele>87.4000015258789</ele>
        <time>2013-04-13T15:53:09.000Z</time>
      </trkpt>
      <trkpt lon="11.956685464829206" lat="57.67341999337077">
        <ele>90.4000015258789</ele>
        <time>2013-04-13T15:53:16.000Z</time>
      </trkpt>
      <trkpt lon="11.956827286630869" lat="57.67334916628897">
        <ele>90.4000015258789</ele>
        <time>2013-04-13T15:53:23.000Z</time>
      </trkpt>
      <trkpt lon="11.95691085420549" lat="57.673229556530714">
        <ele>91.80000305175781</ele>
        <time>2013-04-13T15:53:30.000Z</time>
      </trkpt>
      <trkpt lon="11.957070780918002" lat="57.67312813550234">
        <ele>94.0</ele>
        <time>2013-04-13T15:53:37.000Z</time>
      </trkpt>
      <trkpt lon="11.95716549642384" lat="57.67303015105426">
        <ele>94.80000305175781</ele>
        <time>2013-04-13T15:53:43.000Z</time>
      </trkpt>
      <trkpt lon="11.957265576347709" lat="57.6729213539511">
        <ele>96.0</ele>
        <time>2013-04-13T15:53:50.000Z</time>
      </trkpt>
      <trkpt lon="11.95738535374403" lat="57.672801995649934">
        <ele>98.4000015258789</ele>
        <time>2013-04-13T15:53:57.000Z</time>
      </trkpt>
      <trkpt lon="11.957449559122324" lat="57.67264919355512">
        <ele>98.4000015258789</ele>
        <time>2013-04-13T15:54:03.000Z</time>
      </trkpt>
      <trkpt lon="11.957657765597105" lat="57.672456661239266">
        <ele>98.4000015258789</ele>
        <time>2013-04-13T15:54:10.000Z</time>
      </trkpt>
      <trkpt lon="11.95805674418807" lat="57.67228198237717">
        <ele>98.0</ele>
        <time>2013-04-13T15:54:17.000Z</time>
      </trkpt>
      <trkpt lon="11.95837777107954" lat="57.67211048863828">
        <ele>98.4000015258789</ele>
        <time>2013-04-13T15:54:22.000Z</time>
      </trkpt>
      <trkpt lon="11.958478270098567" lat="57.67195316031575">
        <ele>100.0</ele>
        <time>2013-04-13T15:54:26.000Z</time>
      </trkpt>
      <trkpt lon="11.958519341424108" lat="57.67190035432577">
        <ele>101.0</ele>
        <time>2013-04-13T15:54:29.000Z</time>
      </trkpt>
      <trkpt lon="11.958517162129283" lat="57.67186707817018">
        <ele>103.4000015258789</ele>
        <time>2013-04-13T15:54:36.000Z</time>
      </trkpt>
      <trkpt lon="11.95850525982678" lat="57.671852158382535">
        <ele>104.80000305175781</ele>
        <time>2013-04-13T15:54:42.000Z</time>
      </trkpt>
      <trkpt lon="11.958509283140302" lat="57.671842351555824">
        <ele>105.4000015258789</ele>
        <time>2013-04-13T15:55:08.000Z</time>
      </trkpt>
      <trkpt lon="11.958501487970352" lat="57.671836065128446">
        <ele>104.80000305175781</ele>
        <time>2013-04-13T15:55:12.000Z</time>
      </trkpt>
      <trkpt lon="11.958484891802073" lat="57.67171989195049">
        <ele>102.80000305175781</ele>
        <time>2013-04-13T15:55:16.000Z</time>
      </trkpt>
      <trkpt lon="11.958596371114254" lat="57.67156608402729">
        <ele>102.4000015258789</ele>
        <time>2013-04-13T15:55:20.000Z</time>
      </trkpt>
      <trkpt lon="11.95865429006517" lat="57.67141026444733">
        <ele>101.4000015258789</ele>
        <time>2013-04-13T15:55:23.000Z</time>
      </trkpt>
      <trkpt lon="11.95868605747819" lat="57.671224270015955">
        <ele>100.0</ele>
        <time>2013-04-13T15:55:26.000Z</time>
      </trkpt>
      <trkpt lon="11.95880725979805" lat="57.67084348015487">
        <ele>97.0</ele>
        <time>2013-04-13T15:55:32.000Z</time>
      </trkpt>
      <trkpt lon="11.959072044119239" lat="57.67059093341231">
        <ele>95.4000015258789</ele>
        <time>2013-04-13T15:55:37.000Z</time>
      </trkpt>
      <trkpt lon="11.959142787382007" lat="57.670378955081105">
        <ele>94.80000305175781</ele>
        <time>2013-04-13T15:55:41.000Z</time>
      </trkpt>
      <trkpt lon="11.959065087139606" lat="57.670187344774604">
        <ele>96.0</ele>
        <time>2013-04-13T15:55:46.000Z</time>
      </trkpt>
      <trkpt lon="11.959003647789359" lat="57.67014409415424">
        <ele>96.0</ele>
        <time>2013-04-13T15:55:48.000Z</time>
      </trkpt>
      <trkpt lon="11.958792256191373" lat="57.66998793929815">
        <ele>95.0</ele>
        <time>2013-04-13T15:55:54.000Z</time>
      </trkpt>
      <trkpt lon="11.95861866697669" lat="57.66980948857963">
        <ele>92.80000305175781</ele>
        <time>2013-04-13T15:55:58.000Z</time>
      </trkpt>
      <trkpt lon="11.95857373997569" lat="57.66975827515125">
        <ele>92.4000015258789</ele>
        <time>2013-04-13T15:55:59.000Z</time>
      </trkpt>
      <trkpt lon="11.958352541550994" lat="57.66967797651887">
        <ele>90.4000015258789</ele>
        <time>2013-04-13T15:56:02.000Z</time>
      </trkpt>
      <trkpt lon="11.957991449162364" lat="57.66957345418632">
        <ele>89.0</ele>
        <time>2013-04-13T15:56:06.000Z</time>
      </trkpt>
      <trkpt lon="11.957864882424474" lat="57.669382598251104">
        <ele>87.0</ele>
        <time>2013-04-13T15:56:10.000Z</time>
      </trkpt>
      <trkpt lon="11.957949455827475" lat="57.669206662103534">
        <ele>86.4000015258789</ele>
        <time>2013-04-13T15:56:13.000Z</time>
      </trkpt>
      <trkpt lon="11.958172833546996" lat="57.66893735155463">
        <ele>86.0</ele>
        <time>2013-04-13T15:56:19.000Z</time>
      </trkpt>
      <trkpt lon="11.958296298980713" lat="57.66879837960005">
        <ele>85.4000015258789</ele>
        <time>2013-04-13T15:56:23.000Z</time>
      </trkpt>
      <trkpt lon="11.958308955654502" lat="57.668712297454476">
        <ele>84.4000015258789</ele>
        <time>2013-04-13T15:56:25.000Z</time>
      </trkpt>
      <trkpt lon="11.95810074917972" lat="57.668587071821094">
        <ele>81.80000305175781</ele>
        <time>2013-04-13T15:56:29.000Z</time>
      </trkpt>
      <trkpt lon="11.957925148308277" lat="57.668586652725935">
        <ele>81.0</ele>
        <time>2013-04-13T15:56:31.000Z</time>
      </trkpt>
      <trkpt lon="11.95747965015471" lat="57.66861238516867">
        <ele>78.0</ele>
        <time>2013-04-13T15:56:36.000Z</time>
      </trkpt>
      <trkpt lon="11.957118390128016" lat="57.66852077096701">
        <ele>76.4000015258789</ele>
        <time>2013-04-13T15:56:39.000Z</time>
      </trkpt>
      <trkpt lon="11.95704035460949" lat="57.6684660371393">
        <ele>76.4000015258789</ele>
        <time>2013-04-13T15:56:40.000Z</time>
      </trkpt>
      <trkpt lon="11.956752436235547" lat="57.66832899302244">
        <ele>75.4000015258789</ele>
        <time>2013-04-13T15:56:45.000Z</time>
      </trkpt>
      <trkpt lon="11.956538446247578" lat="57.66824886202812">
        <ele>75.4000015258789</ele>
        <time>2013-04-13T15:56:50.000Z</time>
      </trkpt>
      <trkpt lon="11.956492261961102" lat="57.668192284181714">
        <ele>75.0</ele>
        <time>2013-04-13T15:56:52.000Z</time>
      </trkpt>
      <trkpt lon="11.95621163584292" lat="57.66807435080409">
        <ele>72.4000015258789</ele>
        <time>2013-04-13T15:56:57.000Z</time>
      </trkpt>
      <trkpt lon="11.956185651943088" lat="57.667994387447834">
        <ele>71.4000015258789</ele>
        <time>2013-04-13T15:57:00.000Z</time>
      </trkpt>
      <trkpt lon="11.956142485141754" lat="57.66796085983515">
        <ele>70.0</ele>
        <time>2013-04-13T15:57:03.000Z</time>
      </trkpt>
      <trkpt lon="11.95613443851471" lat="57.66787687316537">
        <ele>68.0</ele>
        <time>2013-04-13T15:57:07.000Z</time>
      </trkpt>
      <trkpt lon="11.955995634198189" lat="57.66781476326287">
        <ele>68.80000305175781</ele>
        <time>2013-04-13T15:57:10.000Z</time>
      </trkpt>
      <trkpt lon="11.955949366092682" lat="57.667780481278896">
        <ele>67.80000305175781</ele>
        <time>2013-04-13T15:57:12.000Z</time>
      </trkpt>
      <trkpt lon="11.955912569537759" lat="57.66773035749793">
        <ele>68.0</ele>
        <time>2013-04-13T15:57:16.000Z</time>
      </trkpt>
      <trkpt lon="11.955900080502033" lat="57.667718874290586">
        <ele>68.80000305175781</ele>
        <time>2013-04-13T15:57:18.000Z</time>
      </trkpt>
      <trkpt lon="11.955841155722737" lat="57.66769825480878">
        <ele>69.0</ele>
        <time>2013-04-13T15:57:23.000Z</time>
      </trkpt>
      <trkpt lon="11.955805364996195" lat="57.667613262310624">
        <ele>70.0</ele>
        <time>2013-04-13T15:57:29.000Z</time>
      </trkpt>
      <trkpt lon="11.95574157871306" lat="57.66751443967223">
        <ele>70.0</ele>
        <time>2013-04-13T15:57:34.000Z</time>
      </trkpt>
      <trkpt lon="11.95572255179286" lat="57.667486695572734">
        <ele>70.0</ele>
        <time>2013-04-13T15:57:35.000Z</time>
      </trkpt>
      <trkpt lon="11.955796647816896" lat="57.66739374026656">
        <ele>70.4000015258789</ele>
        <time>2013-04-13T15:57:40.000Z</time>
      </trkpt>
      <trkpt lon="11.9559155870229" lat="57.6672709453851">
        <ele>71.4000015258789</ele>
        <time>2013-04-13T15:57:46.000Z</time>
      </trkpt>
      <trkpt lon="11.956073334440589" lat="57.66715468838811">
        <ele>71.4000015258789</ele>
        <time>2013-04-13T15:57:51.000Z</time>
      </trkpt>
      <trkpt lon="11.9562678784132" lat="57.667011274024844">
        <ele>73.4000015258789</ele>
        <time>2013-04-13T15:57:56.000Z</time>
      </trkpt>
      <trkpt lon="11.956444988027215" lat="57.66688688658178">
        <ele>79.4000015258789</ele>
        <time>2013-04-13T15:58:01.000Z</time>
      </trkpt>
      <trkpt lon="11.956575075164437" lat="57.666751854121685">
        <ele>83.0</ele>
        <time>2013-04-13T15:58:07.000Z</time>
      </trkpt>
      <trkpt lon="11.956693762913346" lat="57.66661196015775">
        <ele>80.4000015258789</ele>
        <time>2013-04-13T15:58:12.000Z</time>
      </trkpt>
      <trkpt lon="11.956928875297308" lat="57.66645144671202">
        <ele>73.4000015258789</ele>
        <time>2013-04-13T15:58:17.000Z</time>
      </trkpt>
      <trkpt lon="11.956943292170763" lat="57.666424037888646">
        <ele>73.0</ele>
        <time>2013-04-13T15:58:18.000Z</time>
      </trkpt>
      <trkpt lon="11.956887552514672" lat="57.6663554739207">
        <ele>73.4000015258789</ele>
        <time>2013-04-13T15:58:21.000Z</time>
      </trkpt>
      <trkpt lon="11.956859976053238" lat="57.66620568931103">
        <ele>69.80000305175781</ele>
        <time>2013-04-13T15:58:26.000Z</time>
      </trkpt>
      <trkpt lon="11.956876069307327" lat="57.666173251345754">
        <ele>68.0</ele>
        <time>2013-04-13T15:58:27.000Z</time>
      </trkpt>
      <trkpt lon="11.957004060968757" lat="57.6659151725471">
        <ele>68.0</ele>
        <time>2013-04-13T15:58:33.000Z</time>
      </trkpt>
      <trkpt lon="11.956983273848891" lat="57.665855661034584">
        <ele>68.0</ele>
        <time>2013-04-13T15:58:35.000Z</time>
      </trkpt>
      <trkpt lon="11.956811277195811" lat="57.665816685184836">
        <ele>67.80000305175781</ele>
        <time>2013-04-13T15:58:39.000Z</time>
      </trkpt>
      <trkpt lon="11.95676039904356" lat="57.665803860872984">
        <ele>67.80000305175781</ele>
        <time>2013-04-13T15:58:40.000Z</time>
      </trkpt>
      <trkpt lon="11.956358486786485" lat="57.665659775957465">
        <ele>67.80000305175781</ele>
        <time>2013-04-13T15:58:47.000Z</time>
      </trkpt>
      <trkpt lon="11.956221275031567" lat="57.66562448814511">
        <ele>67.80000305175781</ele>
        <time>2013-04-13T15:58:50.000Z</time>
      </trkpt>
      <trkpt lon="11.956185568124056" lat="57.66558148898184">
        <ele>67.80000305175781</ele>
        <time>2013-04-13T15:58:56.000Z</time>
      </trkpt>
      <trkpt lon="11.95612907409668" lat="57.66552407294512">
        <ele>69.80000305175781</ele>
        <time>2013-04-13T15:59:09.000Z</time>
      </trkpt>
      <trkpt lon="11.956163356080651" lat="57.66548249870539">
        <ele>69.80000305175781</ele>
        <time>2013-04-13T15:59:14.000Z</time>
      </trkpt>
      <trkpt lon="11.956224543973804" lat="57.66543044708669">
        <ele>70.0</ele>
        <time>2013-04-13T15:59:22.000Z</time>
      </trkpt>
      <trkpt lon="11.956253964453936" lat="57.6653971709311">
        <ele>70.0</ele>
        <time>2013-04-13T15:59:26.000Z</time>
      </trkpt>
      <trkpt lon="11.95630987174809" lat="57.66534939408302">
        <ele>72.4000015258789</ele>
        <time>2013-04-13T15:59:34.000Z</time>
      </trkpt>
      <trkpt lon="11.95635479874909" lat="57.66531636938453">
        <ele>74.0</ele>
        <time>2013-04-13T15:59:41.000Z</time>
      </trkpt>
      <trkpt lon="11.95643006823957" lat="57.66528233885765">
        <ele>77.0</ele>
        <time>2013-04-13T15:59:52.000Z</time>
      </trkpt>
      <trkpt lon="11.956496955826879" lat="57.66524906270206">
        <ele>76.0</ele>
        <time>2013-04-13T15:59:59.000Z</time>
      </trkpt>
      <trkpt lon="11.95658496581018" lat="57.66522165387869">
        <ele>75.4000015258789</ele>
        <time>2013-04-13T16:00:07.000Z</time>
      </trkpt>
      <trkpt lon="11.956642884761095" lat="57.66518418677151">
        <ele>75.0</ele>
        <time>2013-04-13T16:00:13.000Z</time>
      </trkpt>
      <trkpt lon="11.956716058775783" lat="57.66511654481292">
        <ele>75.0</ele>
        <time>2013-04-13T16:00:18.000Z</time>
      </trkpt>
      <trkpt lon="11.95674916729331" lat="57.665045550093055">
        <ele>74.4000015258789</ele>
        <time>2013-04-13T16:00:22.000Z</time>
      </trkpt>
      <trkpt lon="11.956847570836544" lat="57.664939686656">
        <ele>75.0</ele>
        <time>2013-04-13T16:00:28.000Z</time>
      </trkpt>
      <trkpt lon="11.95691873319447" lat="57.66482267528772">
        <ele>75.0</ele>
        <time>2013-04-13T16:00:34.000Z</time>
      </trkpt>
      <trkpt lon="11.95701495744288" lat="57.66472678631544">
        <ele>76.4000015258789</ele>
        <time>2013-04-13T16:00:39.000Z</time>
      </trkpt>
      <trkpt lon="11.957048065960407" lat="57.66468035057187">
        <ele>77.0</ele>
        <time>2013-04-13T16:00:42.000Z</time>
      </trkpt>
      <trkpt lon="11.957183685153723" lat="57.66458404250443">
        <ele>80.4000015258789</ele>
        <time>2013-04-13T16:00:49.000Z</time>
      </trkpt>
      <trkpt lon="11.957270856946707" lat="57.664530063048005">
        <ele>82.0</ele>
        <time>2013-04-13T16:00:55.000Z</time>
      </trkpt>
      <trkpt lon="11.957287369295955" lat="57.664519753307104">
        <ele>82.80000305175781</ele>
        <time>2013-04-13T16:00:56.000Z</time>
      </trkpt>
      <trkpt lon="11.957351239398122" lat="57.664459152147174">
        <ele>84.0</ele>
        <time>2013-04-13T16:01:03.000Z</time>
      </trkpt>
      <trkpt lon="11.957422737032175" lat="57.66441053710878">
        <ele>85.4000015258789</ele>
        <time>2013-04-13T16:01:09.000Z</time>
      </trkpt>
      <trkpt lon="11.957426173612475" lat="57.66437977552414">
        <ele>86.0</ele>
        <time>2013-04-13T16:01:11.000Z</time>
      </trkpt>
      <trkpt lon="11.957426760345697" lat="57.66435379162431">
        <ele>85.0</ele>
        <time>2013-04-13T16:01:18.000Z</time>
      </trkpt>
      <trkpt lon="11.957444865256548" lat="57.664339458569884">
        <ele>89.0</ele>
        <time>2013-04-13T16:01:36.000Z</time>
      </trkpt>
      <trkpt lon="11.957444865256548" lat="57.664339458569884">
        <ele>89.0</ele>
        <time>2013-04-13T16:01:36.000Z</time>
      </trkpt>
      <trkpt lon="11.95743815973401" lat="57.66428019851446">
        <ele>90.0</ele>
        <time>2013-04-13T16:01:57.000Z</time>
      </trkpt>
      <trkpt lon="11.957449056208134" lat="57.66410526819527">
        <ele>87.4000015258789</ele>
        <time>2013-04-13T16:02:02.000Z</time>
      </trkpt>
      <trkpt lon="11.957457857206464" lat="57.663953471928835">
        <ele>85.4000015258789</ele>
        <time>2013-04-13T16:02:06.000Z</time>
      </trkpt>
      <trkpt lon="11.957278233021498" lat="57.66384584829211">
        <ele>82.80000305175781</ele>
        <time>2013-04-13T16:02:10.000Z</time>
      </trkpt>
      <trkpt lon="11.95722266100347" lat="57.663722382858396">
        <ele>82.0</ele>
        <time>2013-04-13T16:02:15.000Z</time>
      </trkpt>
      <trkpt lon="11.95728125050664" lat="57.66355943866074">
        <ele>80.4000015258789</ele>
        <time>2013-04-13T16:02:19.000Z</time>
      </trkpt>
      <trkpt lon="11.957302037626505" lat="57.663491293787956">
        <ele>79.4000015258789</ele>
        <time>2013-04-13T16:02:21.000Z</time>
      </trkpt>
      <trkpt lon="11.95718745701015" lat="57.66333069652319">
        <ele>76.0</ele>
        <time>2013-04-13T16:02:26.000Z</time>
      </trkpt>
      <trkpt lon="11.957225762307644" lat="57.66321837902069">
        <ele>75.0</ele>
        <time>2013-04-13T16:02:29.000Z</time>
      </trkpt>
      <trkpt lon="11.957336235791445" lat="57.663024589419365">
        <ele>72.0</ele>
        <time>2013-04-13T16:02:34.000Z</time>
      </trkpt>
      <trkpt lon="11.957416450604796" lat="57.66294118948281">
        <ele>72.0</ele>
        <time>2013-04-13T16:02:37.000Z</time>
      </trkpt>
      <trkpt lon="11.957433046773076" lat="57.662926856428385">
        <ele>72.0</ele>
        <time>2013-04-13T16:02:38.000Z</time>
      </trkpt>
      <trkpt lon="11.957514937967062" lat="57.66287178732455">
        <ele>72.0</ele>
        <time>2013-04-13T16:02:42.000Z</time>
      </trkpt>
      <trkpt lon="11.957537736743689" lat="57.66282945871353">
        <ele>72.0</ele>
        <time>2013-04-13T16:02:44.000Z</time>
      </trkpt>
      <trkpt lon="11.957642761990428" lat="57.66275938600302">
        <ele>71.4000015258789</ele>
        <time>2013-04-13T16:02:49.000Z</time>
      </trkpt>
      <trkpt lon="11.957639241591096" lat="57.66272669658065">
        <ele>72.4000015258789</ele>
        <time>2013-04-13T16:02:54.000Z</time>
      </trkpt>
      <trkpt lon="11.957713589072227" lat="57.662606332451105">
        <ele>72.4000015258789</ele>
        <time>2013-04-13T16:03:00.000Z</time>
      </trkpt>
      <trkpt lon="11.957729598507285" lat="57.66247649677098">
        <ele>70.4000015258789</ele>
        <time>2013-04-13T16:03:04.000Z</time>
      </trkpt>
      <trkpt lon="11.957756755873561" lat="57.66238077543676">
        <ele>67.4000015258789</ele>
        <time>2013-04-13T16:03:08.000Z</time>
      </trkpt>
      <trkpt lon="11.957772178575397" lat="57.66221858561039">
        <ele>62.400001525878906</ele>
        <time>2013-04-13T16:03:13.000Z</time>
      </trkpt>
      <trkpt lon="11.957880891859531" lat="57.662082547321916">
        <ele>60.20000076293945</ele>
        <time>2013-04-13T16:03:17.000Z</time>
      </trkpt>
      <trkpt lon="11.958104353398085" lat="57.66202957369387">
        <ele>57.20000076293945</ele>
        <time>2013-04-13T16:03:22.000Z</time>
      </trkpt>
      <trkpt lon="11.958288252353668" lat="57.661979449912906">
        <ele>53.0</ele>
        <time>2013-04-13T16:03:27.000Z</time>
      </trkpt>
      <trkpt lon="11.958357570692897" lat="57.66193209215999">
        <ele>51.0</ele>
        <time>2013-04-13T16:03:29.000Z</time>
      </trkpt>
      <trkpt lon="11.95844465866685" lat="57.6618623547256">
        <ele>48.400001525878906</ele>
        <time>2013-04-13T16:03:32.000Z</time>
      </trkpt>
      <trkpt lon="11.958557898178697" lat="57.661764873191714">
        <ele>46.20000076293945</ele>
        <time>2013-04-13T16:03:37.000Z</time>
      </trkpt>
      <trkpt lon="11.958653787150979" lat="57.66161559149623">
        <ele>44.599998474121094</ele>
        <time>2013-04-13T16:03:42.000Z</time>
      </trkpt>
      <trkpt lon="11.958622941747308" lat="57.66152146272361">
        <ele>42.400001525878906</ele>
        <time>2013-04-13T16:03:45.000Z</time>
      </trkpt>
      <trkpt lon="11.958726290613413" lat="57.66133043915033">
        <ele>39.400001525878906</ele>
        <time>2013-04-13T16:03:51.000Z</time>
      </trkpt>
      <trkpt lon="11.958848750218749" lat="57.661134051159024">
        <ele>39.0</ele>
        <time>2013-04-13T16:03:56.000Z</time>
      </trkpt>
      <trkpt lon="11.958970287814736" lat="57.66095945611596">
        <ele>38.400001525878906</ele>
        <time>2013-04-13T16:04:00.000Z</time>
      </trkpt>
      <trkpt lon="11.959080258384347" lat="57.66082744114101">
        <ele>38.400001525878906</ele>
        <time>2013-04-13T16:04:04.000Z</time>
      </trkpt>
      <trkpt lon="11.95919525809586" lat="57.660653768107295">
        <ele>39.0</ele>
        <time>2013-04-13T16:04:10.000Z</time>
      </trkpt>
      <trkpt lon="11.959155779331923" lat="57.66048428602517">
        <ele>41.599998474121094</ele>
        <time>2013-04-13T16:04:16.000Z</time>
      </trkpt>
      <trkpt lon="11.959097357466817" lat="57.66028814949095">
        <ele>42.400001525878906</ele>
        <time>2013-04-13T16:04:21.000Z</time>
      </trkpt>
      <trkpt lon="11.95909014903009" lat="57.66011246480048">
        <ele>40.599998474121094</ele>
        <time>2013-04-13T16:04:26.000Z</time>
      </trkpt>
      <trkpt lon="11.959089562296867" lat="57.66007063910365">
        <ele>40.400001525878906</ele>
        <time>2013-04-13T16:04:27.000Z</time>
      </trkpt>
      <trkpt lon="11.959155863150954" lat="57.659887075424194">
        <ele>42.400001525878906</ele>
        <time>2013-04-13T16:04:32.000Z</time>
      </trkpt>
      <trkpt lon="11.959156785160303" lat="57.65960929915309">
        <ele>40.400001525878906</ele>
        <time>2013-04-13T16:04:38.000Z</time>
      </trkpt>
      <trkpt lon="11.95920255035162" lat="57.65949237160385">
        <ele>39.400001525878906</ele>
        <time>2013-04-13T16:04:40.000Z</time>
      </trkpt>
      <trkpt lon="11.95934135466814" lat="57.65929506160319">
        <ele>36.0</ele>
        <time>2013-04-13T16:04:44.000Z</time>
      </trkpt>
      <trkpt lon="11.959411762654781" lat="57.659110240638256">
        <ele>33.400001525878906</ele>
        <time>2013-04-13T16:04:48.000Z</time>
      </trkpt>
      <trkpt lon="11.959632877260447" lat="57.65897705219686">
        <ele>31.600000381469727</ele>
        <time>2013-04-13T16:04:52.000Z</time>
      </trkpt>
      <trkpt lon="11.959661459550261" lat="57.658937154337764">
        <ele>31.200000762939453</ele>
        <time>2013-04-13T16:04:53.000Z</time>
      </trkpt>
      <trkpt lon="11.959839155897498" lat="57.65865015797317">
        <ele>34.400001525878906</ele>
        <time>2013-04-13T16:04:59.000Z</time>
      </trkpt>
      <trkpt lon="11.95998726412654" lat="57.65849123708904">
        <ele>36.400001525878906</ele>
        <time>2013-04-13T16:05:03.000Z</time>
      </trkpt>
      <trkpt lon="11.960016684606671" lat="57.658266769722104">
        <ele>35.20000076293945</ele>
        <time>2013-04-13T16:05:08.000Z</time>
      </trkpt>
      <trkpt lon="11.960053984075785" lat="57.65819217078388">
        <ele>34.400001525878906</ele>
        <time>2013-04-13T16:05:10.000Z</time>
      </trkpt>
      <trkpt lon="11.96008206345141" lat="57.65811178833246">
        <ele>34.400001525878906</ele>
        <time>2013-04-13T16:05:12.000Z</time>
      </trkpt>
      <trkpt lon="11.960253473371267" lat="57.65792193822563">
        <ele>33.400001525878906</ele>
        <time>2013-04-13T16:05:18.000Z</time>
      </trkpt>
      <trkpt lon="11.960440473631024" lat="57.65783845447004">
        <ele>35.20000076293945</ele>
        <time>2013-04-13T16:05:22.000Z</time>
      </trkpt>
      <trkpt lon="11.960538541898131" lat="57.657732255756855">
        <ele>38.400001525878906</ele>
        <time>2013-04-13T16:05:26.000Z</time>
      </trkpt>
      <trkpt lon="11.960655553266406" lat="57.65759915113449">
        <ele>39.400001525878906</ele>
        <time>2013-04-13T16:05:31.000Z</time>
      </trkpt>
      <trkpt lon="11.960655050352216" lat="57.65759604983032">
        <ele>39.400001525878906</ele>
        <time>2013-04-13T16:05:32.000Z</time>
      </trkpt>
      <trkpt lon="11.960671646520495" lat="57.65759035013616">
        <ele>40.400001525878906</ele>
        <time>2013-04-13T16:05:41.000Z</time>
      </trkpt>
    </trkseg>
  </trk>
</gpx>
